<?xml version="1.0" encoding="UTF-8" standalone="no" ?>
<gpx xmlns="http://www.topografix.com/GPX/1/1" xmlns:xsi="http://www.w3.org/2001/XMLSchema-instance" xsi:schemaLocation="http://www.topografix.com/GPX/1/1 http://www.topografix.com/GPX/1/1/gpx.xsd" version="1.1" creator="VisuGPX - https://www.visugpx.com">
  <metadata>
    <name>Les Molières-St Remy lès Chevreuse</name>
    <desc><![CDATA[par Grand Ragonant et Montabé]]></desc>
  </metadata>
  <trk>
    <name><![CDATA[Les molières]]></name>
    <desc><![CDATA[25 nov. 2012  1:34 pm]]></desc>
    <trkseg>
      <trkpt lat="48.67365" lon="2.06956">
        <ele>163.588</ele>
        <time>2012-11-25T12:35:05.626Z</time>
      </trkpt>
      <trkpt lat="48.67374" lon="2.0695">
        <ele>164.841</ele>
        <time>2012-11-25T12:35:18.160Z</time>
      </trkpt>
      <trkpt lat="48.67383" lon="2.06949">
        <ele>166.176</ele>
        <time>2012-11-25T12:35:28.268Z</time>
      </trkpt>
      <trkpt lat="48.67392" lon="2.06951">
        <ele>166.823</ele>
        <time>2012-11-25T12:35:36.492Z</time>
      </trkpt>
      <trkpt lat="48.67403" lon="2.06952">
        <ele>166.929</ele>
        <time>2012-11-25T12:35:45.133Z</time>
      </trkpt>
      <trkpt lat="48.67413" lon="2.06956">
        <ele>166.825</ele>
        <time>2012-11-25T12:35:53.526Z</time>
      </trkpt>
      <trkpt lat="48.67421" lon="2.06962">
        <ele>166.716</ele>
        <time>2012-11-25T12:36:00.178Z</time>
      </trkpt>
      <trkpt lat="48.67429" lon="2.06971">
        <ele>166.642</ele>
        <time>2012-11-25T12:36:06.891Z</time>
      </trkpt>
      <trkpt lat="48.67437" lon="2.06975">
        <ele>166.678</ele>
        <time>2012-11-25T12:36:13.877Z</time>
      </trkpt>
      <trkpt lat="48.67446" lon="2.06983">
        <ele>166.893</ele>
        <time>2012-11-25T12:36:23.187Z</time>
      </trkpt>
      <trkpt lat="48.67453" lon="2.06993">
        <ele>167.147</ele>
        <time>2012-11-25T12:36:30.810Z</time>
      </trkpt>
      <trkpt lat="48.6746" lon="2.07001">
        <ele>167.266</ele>
        <time>2012-11-25T12:36:37.279Z</time>
      </trkpt>
      <trkpt lat="48.67468" lon="2.07012">
        <ele>167.196</ele>
        <time>2012-11-25T12:36:44.944Z</time>
      </trkpt>
      <trkpt lat="48.67476" lon="2.07018">
        <ele>166.949</ele>
        <time>2012-11-25T12:36:51.706Z</time>
      </trkpt>
      <trkpt lat="48.67484" lon="2.07028">
        <ele>166.555</ele>
        <time>2012-11-25T12:36:59.055Z</time>
      </trkpt>
      <trkpt lat="48.67492" lon="2.07034">
        <ele>166.053</ele>
        <time>2012-11-25T12:37:05.972Z</time>
      </trkpt>
      <trkpt lat="48.67501" lon="2.0703">
        <ele>165.415</ele>
        <time>2012-11-25T12:37:12.634Z</time>
      </trkpt>
      <trkpt lat="48.67501" lon="2.0703">
        <ele>164.696</ele>
        <time>2012-11-25T12:37:27.639Z</time>
      </trkpt>
      <trkpt lat="48.67501" lon="2.0703">
        <ele>164.15</ele>
        <time>2012-11-25T12:38:29.606Z</time>
      </trkpt>
      <trkpt lat="48.67512" lon="2.07044">
        <ele>163.945</ele>
        <time>2012-11-25T12:39:21.166Z</time>
      </trkpt>
      <trkpt lat="48.6752" lon="2.07051">
        <ele>163.868</ele>
        <time>2012-11-25T12:39:29.066Z</time>
      </trkpt>
      <trkpt lat="48.67529" lon="2.07054">
        <ele>163.587</ele>
        <time>2012-11-25T12:39:36.548Z</time>
      </trkpt>
      <trkpt lat="48.67536" lon="2.07045">
        <ele>163.061</ele>
        <time>2012-11-25T12:39:44.351Z</time>
      </trkpt>
      <trkpt lat="48.6754" lon="2.07031">
        <ele>162.738</ele>
        <time>2012-11-25T12:39:52.615Z</time>
      </trkpt>
      <trkpt lat="48.67547" lon="2.07021">
        <ele>162.888</ele>
        <time>2012-11-25T12:40:00.391Z</time>
      </trkpt>
      <trkpt lat="48.67553" lon="2.07011">
        <ele>162.844</ele>
        <time>2012-11-25T12:40:08.338Z</time>
      </trkpt>
      <trkpt lat="48.67559" lon="2.06999">
        <ele>162.062</ele>
        <time>2012-11-25T12:40:16.352Z</time>
      </trkpt>
      <trkpt lat="48.67566" lon="2.06989">
        <ele>161.264</ele>
        <time>2012-11-25T12:40:24.041Z</time>
      </trkpt>
      <trkpt lat="48.67572" lon="2.06978">
        <ele>161.18</ele>
        <time>2012-11-25T12:40:32.424Z</time>
      </trkpt>
      <trkpt lat="48.67578" lon="2.06968">
        <ele>161.729</ele>
        <time>2012-11-25T12:40:41.091Z</time>
      </trkpt>
      <trkpt lat="48.67586" lon="2.06959">
        <ele>162.356</ele>
        <time>2012-11-25T12:40:52.266Z</time>
      </trkpt>
      <trkpt lat="48.67596" lon="2.06963">
        <ele>162.48</ele>
        <time>2012-11-25T12:41:02.689Z</time>
      </trkpt>
      <trkpt lat="48.67604" lon="2.06969">
        <ele>162.169</ele>
        <time>2012-11-25T12:41:11.293Z</time>
      </trkpt>
      <trkpt lat="48.67613" lon="2.06975">
        <ele>161.899</ele>
        <time>2012-11-25T12:41:19.496Z</time>
      </trkpt>
      <trkpt lat="48.67621" lon="2.06981">
        <ele>161.787</ele>
        <time>2012-11-25T12:41:27.375Z</time>
      </trkpt>
      <trkpt lat="48.67631" lon="2.06986">
        <ele>161.555</ele>
        <time>2012-11-25T12:41:35.727Z</time>
      </trkpt>
      <trkpt lat="48.6764" lon="2.06992">
        <ele>160.951</ele>
        <time>2012-11-25T12:41:43.436Z</time>
      </trkpt>
      <trkpt lat="48.67649" lon="2.06998">
        <ele>160.3</ele>
        <time>2012-11-25T12:41:50.958Z</time>
      </trkpt>
      <trkpt lat="48.67658" lon="2.07002">
        <ele>160.025</ele>
        <time>2012-11-25T12:41:59.365Z</time>
      </trkpt>
      <trkpt lat="48.67667" lon="2.07007">
        <ele>159.729</ele>
        <time>2012-11-25T12:42:08.430Z</time>
      </trkpt>
      <trkpt lat="48.67676" lon="2.07012">
        <ele>158.935</ele>
        <time>2012-11-25T12:42:16.387Z</time>
      </trkpt>
      <trkpt lat="48.67684" lon="2.07019">
        <ele>157.643</ele>
        <time>2012-11-25T12:42:23.625Z</time>
      </trkpt>
      <trkpt lat="48.67693" lon="2.07026">
        <ele>155.914</ele>
        <time>2012-11-25T12:42:31.509Z</time>
      </trkpt>
      <trkpt lat="48.67701" lon="2.07031">
        <ele>154.141</ele>
        <time>2012-11-25T12:42:39.372Z</time>
      </trkpt>
      <trkpt lat="48.6771" lon="2.0704">
        <ele>153.046</ele>
        <time>2012-11-25T12:42:48.879Z</time>
      </trkpt>
      <trkpt lat="48.67716" lon="2.07051">
        <ele>152.728</ele>
        <time>2012-11-25T12:42:57.794Z</time>
      </trkpt>
      <trkpt lat="48.67722" lon="2.07062">
        <ele>152.877</ele>
        <time>2012-11-25T12:43:07.588Z</time>
      </trkpt>
      <trkpt lat="48.67727" lon="2.07074">
        <ele>153.147</ele>
        <time>2012-11-25T12:43:15.998Z</time>
      </trkpt>
      <trkpt lat="48.67734" lon="2.07084">
        <ele>153.196</ele>
        <time>2012-11-25T12:43:24.537Z</time>
      </trkpt>
      <trkpt lat="48.67741" lon="2.07094">
        <ele>152.833</ele>
        <time>2012-11-25T12:43:32.929Z</time>
      </trkpt>
      <trkpt lat="48.67746" lon="2.07106">
        <ele>152.201</ele>
        <time>2012-11-25T12:43:41.272Z</time>
      </trkpt>
      <trkpt lat="48.67752" lon="2.07115">
        <ele>151.666</ele>
        <time>2012-11-25T12:43:51.116Z</time>
      </trkpt>
      <trkpt lat="48.67759" lon="2.07125">
        <ele>151.337</ele>
        <time>2012-11-25T12:43:59.674Z</time>
      </trkpt>
      <trkpt lat="48.67767" lon="2.07132">
        <ele>150.834</ele>
        <time>2012-11-25T12:44:06.387Z</time>
      </trkpt>
      <trkpt lat="48.67776" lon="2.07137">
        <ele>150.265</ele>
        <time>2012-11-25T12:44:13.161Z</time>
      </trkpt>
      <trkpt lat="48.67785" lon="2.07143">
        <ele>150.158</ele>
        <time>2012-11-25T12:44:20.409Z</time>
      </trkpt>
      <trkpt lat="48.67794" lon="2.0715">
        <ele>150.466</ele>
        <time>2012-11-25T12:44:28.032Z</time>
      </trkpt>
      <trkpt lat="48.67802" lon="2.07156">
        <ele>151.181</ele>
        <time>2012-11-25T12:44:35.459Z</time>
      </trkpt>
      <trkpt lat="48.67812" lon="2.07161">
        <ele>152.239</ele>
        <time>2012-11-25T12:44:43.570Z</time>
      </trkpt>
      <trkpt lat="48.67822" lon="2.07161">
        <ele>152.901</ele>
        <time>2012-11-25T12:44:52.500Z</time>
      </trkpt>
      <trkpt lat="48.67831" lon="2.07161">
        <ele>152.908</ele>
        <time>2012-11-25T12:45:02.481Z</time>
      </trkpt>
      <trkpt lat="48.67841" lon="2.07162">
        <ele>152.493</ele>
        <time>2012-11-25T12:45:11.847Z</time>
      </trkpt>
      <trkpt lat="48.67851" lon="2.07166">
        <ele>151.633</ele>
        <time>2012-11-25T12:45:19.360Z</time>
      </trkpt>
      <trkpt lat="48.67861" lon="2.07171">
        <ele>150.614</ele>
        <time>2012-11-25T12:45:26.795Z</time>
      </trkpt>
      <trkpt lat="48.67872" lon="2.07174">
        <ele>149.898</ele>
        <time>2012-11-25T12:45:35.308Z</time>
      </trkpt>
      <trkpt lat="48.67881" lon="2.07176">
        <ele>149.609</ele>
        <time>2012-11-25T12:45:44.403Z</time>
      </trkpt>
      <trkpt lat="48.67892" lon="2.07179">
        <ele>149.595</ele>
        <time>2012-11-25T12:45:53.673Z</time>
      </trkpt>
      <trkpt lat="48.67902" lon="2.07183">
        <ele>148.884</ele>
        <time>2012-11-25T12:46:01.066Z</time>
      </trkpt>
      <trkpt lat="48.67911" lon="2.07186">
        <ele>147.26</ele>
        <time>2012-11-25T12:46:07.657Z</time>
      </trkpt>
      <trkpt lat="48.67922" lon="2.07188">
        <ele>146.561</ele>
        <time>2012-11-25T12:46:13.211Z</time>
      </trkpt>
      <trkpt lat="48.67932" lon="2.0719">
        <ele>147.784</ele>
        <time>2012-11-25T12:46:18.672Z</time>
      </trkpt>
      <trkpt lat="48.67941" lon="2.07196">
        <ele>149.44</ele>
        <time>2012-11-25T12:46:24.304Z</time>
      </trkpt>
      <trkpt lat="48.6795" lon="2.07198">
        <ele>150.239</ele>
        <time>2012-11-25T12:46:32.504Z</time>
      </trkpt>
      <trkpt lat="48.6796" lon="2.07198">
        <ele>150.367</ele>
        <time>2012-11-25T12:46:41.830Z</time>
      </trkpt>
      <trkpt lat="48.67968" lon="2.0719">
        <ele>150.639</ele>
        <time>2012-11-25T12:46:51.195Z</time>
      </trkpt>
      <trkpt lat="48.67977" lon="2.07186">
        <ele>151.271</ele>
        <time>2012-11-25T12:46:58.805Z</time>
      </trkpt>
      <trkpt lat="48.67986" lon="2.07179">
        <ele>151.856</ele>
        <time>2012-11-25T12:47:07.168Z</time>
      </trkpt>
      <trkpt lat="48.67995" lon="2.07173">
        <ele>151.899</ele>
        <time>2012-11-25T12:47:15.816Z</time>
      </trkpt>
      <trkpt lat="48.68004" lon="2.07167">
        <ele>151.359</ele>
        <time>2012-11-25T12:47:26.580Z</time>
      </trkpt>
      <trkpt lat="48.68018" lon="2.07168">
        <ele>150.724</ele>
        <time>2012-11-25T12:47:40.372Z</time>
      </trkpt>
      <trkpt lat="48.68027" lon="2.07173">
        <ele>150.349</ele>
        <time>2012-11-25T12:47:46.797Z</time>
      </trkpt>
      <trkpt lat="48.68033" lon="2.07184">
        <ele>150.154</ele>
        <time>2012-11-25T12:47:54.520Z</time>
      </trkpt>
      <trkpt lat="48.68041" lon="2.07192">
        <ele>150.064</ele>
        <time>2012-11-25T12:48:03.671Z</time>
      </trkpt>
      <trkpt lat="48.68049" lon="2.072">
        <ele>150.076</ele>
        <time>2012-11-25T12:48:12.028Z</time>
      </trkpt>
      <trkpt lat="48.68057" lon="2.0721">
        <ele>150.52</ele>
        <time>2012-11-25T12:48:20.528Z</time>
      </trkpt>
      <trkpt lat="48.68065" lon="2.07219">
        <ele>151.553</ele>
        <time>2012-11-25T12:48:29.161Z</time>
      </trkpt>
      <trkpt lat="48.68072" lon="2.07229">
        <ele>152.203</ele>
        <time>2012-11-25T12:48:38.442Z</time>
      </trkpt>
      <trkpt lat="48.68079" lon="2.07238">
        <ele>151.72</ele>
        <time>2012-11-25T12:48:47.498Z</time>
      </trkpt>
      <trkpt lat="48.68083" lon="2.07252">
        <ele>150.543</ele>
        <time>2012-11-25T12:48:57.500Z</time>
      </trkpt>
      <trkpt lat="48.6808" lon="2.07265">
        <ele>148.757</ele>
        <time>2012-11-25T12:49:06.497Z</time>
      </trkpt>
      <trkpt lat="48.68075" lon="2.07279">
        <ele>146.382</ele>
        <time>2012-11-25T12:49:14.417Z</time>
      </trkpt>
      <trkpt lat="48.68071" lon="2.07291">
        <ele>144.407</ele>
        <time>2012-11-25T12:49:21.518Z</time>
      </trkpt>
      <trkpt lat="48.68066" lon="2.07304">
        <ele>143.598</ele>
        <time>2012-11-25T12:49:28.856Z</time>
      </trkpt>
      <trkpt lat="48.68062" lon="2.07316">
        <ele>143.995</ele>
        <time>2012-11-25T12:49:36.279Z</time>
      </trkpt>
      <trkpt lat="48.68058" lon="2.0733">
        <ele>145.156</ele>
        <time>2012-11-25T12:49:44.525Z</time>
      </trkpt>
      <trkpt lat="48.68053" lon="2.07342">
        <ele>146.39</ele>
        <time>2012-11-25T12:49:52.740Z</time>
      </trkpt>
      <trkpt lat="48.68049" lon="2.07355">
        <ele>147.318</ele>
        <time>2012-11-25T12:50:00.754Z</time>
      </trkpt>
      <trkpt lat="48.68044" lon="2.07367">
        <ele>147.961</ele>
        <time>2012-11-25T12:50:09.249Z</time>
      </trkpt>
      <trkpt lat="48.6804" lon="2.0738">
        <ele>148.418</ele>
        <time>2012-11-25T12:50:17.568Z</time>
      </trkpt>
      <trkpt lat="48.68037" lon="2.07393">
        <ele>148.733</ele>
        <time>2012-11-25T12:50:25.944Z</time>
      </trkpt>
      <trkpt lat="48.68032" lon="2.07407">
        <ele>148.862</ele>
        <time>2012-11-25T12:50:34.171Z</time>
      </trkpt>
      <trkpt lat="48.6803" lon="2.07422">
        <ele>148.777</ele>
        <time>2012-11-25T12:50:42.785Z</time>
      </trkpt>
      <trkpt lat="48.68032" lon="2.07435">
        <ele>148.507</ele>
        <time>2012-11-25T12:50:51.085Z</time>
      </trkpt>
      <trkpt lat="48.68038" lon="2.07448">
        <ele>148.328</ele>
        <time>2012-11-25T12:51:00.161Z</time>
      </trkpt>
      <trkpt lat="48.68044" lon="2.07458">
        <ele>148.408</ele>
        <time>2012-11-25T12:51:10.402Z</time>
      </trkpt>
      <trkpt lat="48.68049" lon="2.07472">
        <ele>148.491</ele>
        <time>2012-11-25T12:51:23.000Z</time>
      </trkpt>
      <trkpt lat="48.68058" lon="2.07476">
        <ele>148.448</ele>
        <time>2012-11-25T12:51:34.014Z</time>
      </trkpt>
      <trkpt lat="48.68067" lon="2.07481">
        <ele>148.452</ele>
        <time>2012-11-25T12:51:41.624Z</time>
      </trkpt>
      <trkpt lat="48.68076" lon="2.07487">
        <ele>148.612</ele>
        <time>2012-11-25T12:51:50.111Z</time>
      </trkpt>
      <trkpt lat="48.68084" lon="2.07493">
        <ele>148.867</ele>
        <time>2012-11-25T12:51:58.447Z</time>
      </trkpt>
      <trkpt lat="48.68093" lon="2.075">
        <ele>149.014</ele>
        <time>2012-11-25T12:52:06.871Z</time>
      </trkpt>
      <trkpt lat="48.68101" lon="2.07507">
        <ele>148.924</ele>
        <time>2012-11-25T12:52:15.256Z</time>
      </trkpt>
      <trkpt lat="48.68109" lon="2.07513">
        <ele>148.745</ele>
        <time>2012-11-25T12:52:23.649Z</time>
      </trkpt>
      <trkpt lat="48.68109" lon="2.07513">
        <ele>148.628</ele>
        <time>2012-11-25T12:52:38.644Z</time>
      </trkpt>
      <trkpt lat="48.68109" lon="2.07513">
        <ele>148.558</ele>
        <time>2012-11-25T12:52:38.744Z</time>
      </trkpt>
      <trkpt lat="48.68113" lon="2.07526">
        <ele>148.416</ele>
        <time>2012-11-25T12:52:57.469Z</time>
      </trkpt>
      <trkpt lat="48.6812" lon="2.07535">
        <ele>148.284</ele>
        <time>2012-11-25T12:53:05.999Z</time>
      </trkpt>
      <trkpt lat="48.68125" lon="2.07547">
        <ele>148.164</ele>
        <time>2012-11-25T12:53:13.107Z</time>
      </trkpt>
      <trkpt lat="48.68131" lon="2.0756">
        <ele>148.112</ele>
        <time>2012-11-25T12:53:21.178Z</time>
      </trkpt>
      <trkpt lat="48.68136" lon="2.07573">
        <ele>148.11</ele>
        <time>2012-11-25T12:53:28.431Z</time>
      </trkpt>
      <trkpt lat="48.68142" lon="2.07585">
        <ele>148.124</ele>
        <time>2012-11-25T12:53:35.471Z</time>
      </trkpt>
      <trkpt lat="48.68147" lon="2.07597">
        <ele>148.125</ele>
        <time>2012-11-25T12:53:42.330Z</time>
      </trkpt>
      <trkpt lat="48.68152" lon="2.07611">
        <ele>148.017</ele>
        <time>2012-11-25T12:53:50.889Z</time>
      </trkpt>
      <trkpt lat="48.68156" lon="2.07625">
        <ele>147.861</ele>
        <time>2012-11-25T12:53:59.023Z</time>
      </trkpt>
      <trkpt lat="48.6816" lon="2.07638">
        <ele>147.866</ele>
        <time>2012-11-25T12:54:06.284Z</time>
      </trkpt>
      <trkpt lat="48.68166" lon="2.07651">
        <ele>148.033</ele>
        <time>2012-11-25T12:54:14.017Z</time>
      </trkpt>
      <trkpt lat="48.6817" lon="2.07663">
        <ele>148.145</ele>
        <time>2012-11-25T12:54:21.768Z</time>
      </trkpt>
      <trkpt lat="48.68174" lon="2.07677">
        <ele>148.071</ele>
        <time>2012-11-25T12:54:29.044Z</time>
      </trkpt>
      <trkpt lat="48.68178" lon="2.07689">
        <ele>147.863</ele>
        <time>2012-11-25T12:54:36.015Z</time>
      </trkpt>
      <trkpt lat="48.68183" lon="2.07701">
        <ele>147.689</ele>
        <time>2012-11-25T12:54:43.553Z</time>
      </trkpt>
      <trkpt lat="48.68188" lon="2.07714">
        <ele>147.618</ele>
        <time>2012-11-25T12:54:52.029Z</time>
      </trkpt>
      <trkpt lat="48.68194" lon="2.07727">
        <ele>147.575</ele>
        <time>2012-11-25T12:54:59.977Z</time>
      </trkpt>
      <trkpt lat="48.68199" lon="2.07741">
        <ele>147.491</ele>
        <time>2012-11-25T12:55:07.463Z</time>
      </trkpt>
      <trkpt lat="48.68204" lon="2.07753">
        <ele>147.283</ele>
        <time>2012-11-25T12:55:15.045Z</time>
      </trkpt>
      <trkpt lat="48.68209" lon="2.07764">
        <ele>146.816</ele>
        <time>2012-11-25T12:55:22.370Z</time>
      </trkpt>
      <trkpt lat="48.68215" lon="2.07776">
        <ele>146.192</ele>
        <time>2012-11-25T12:55:30.375Z</time>
      </trkpt>
      <trkpt lat="48.68221" lon="2.07787">
        <ele>146.125</ele>
        <time>2012-11-25T12:55:38.294Z</time>
      </trkpt>
      <trkpt lat="48.68227" lon="2.07798">
        <ele>146.685</ele>
        <time>2012-11-25T12:55:46.945Z</time>
      </trkpt>
      <trkpt lat="48.68232" lon="2.0781">
        <ele>147.25</ele>
        <time>2012-11-25T12:55:56.503Z</time>
      </trkpt>
      <trkpt lat="48.68238" lon="2.07822">
        <ele>147.458</ele>
        <time>2012-11-25T12:56:06.424Z</time>
      </trkpt>
      <trkpt lat="48.68243" lon="2.07834">
        <ele>147.233</ele>
        <time>2012-11-25T12:56:13.851Z</time>
      </trkpt>
      <trkpt lat="48.68249" lon="2.07844">
        <ele>146.749</ele>
        <time>2012-11-25T12:56:20.608Z</time>
      </trkpt>
      <trkpt lat="48.68255" lon="2.07855">
        <ele>145.894</ele>
        <time>2012-11-25T12:56:27.506Z</time>
      </trkpt>
      <trkpt lat="48.68259" lon="2.07868">
        <ele>144.361</ele>
        <time>2012-11-25T12:56:35.395Z</time>
      </trkpt>
      <trkpt lat="48.68262" lon="2.07882">
        <ele>142.897</ele>
        <time>2012-11-25T12:56:44.222Z</time>
      </trkpt>
      <trkpt lat="48.68264" lon="2.07896">
        <ele>142.233</ele>
        <time>2012-11-25T12:56:54.711Z</time>
      </trkpt>
      <trkpt lat="48.68268" lon="2.07909">
        <ele>142.382</ele>
        <time>2012-11-25T12:57:05.704Z</time>
      </trkpt>
      <trkpt lat="48.6827" lon="2.07923">
        <ele>143.326</ele>
        <time>2012-11-25T12:57:15.645Z</time>
      </trkpt>
      <trkpt lat="48.6827" lon="2.07923">
        <ele>144.619</ele>
        <time>2012-11-25T12:57:25.650Z</time>
      </trkpt>
      <trkpt lat="48.6827" lon="2.07923">
        <ele>145.536</ele>
        <time>2012-11-25T12:57:25.750Z</time>
      </trkpt>
      <trkpt lat="48.68272" lon="2.07943">
        <ele>145.241</ele>
        <time>2012-11-25T12:57:40.266Z</time>
      </trkpt>
      <trkpt lat="48.68272" lon="2.07958">
        <ele>144.692</ele>
        <time>2012-11-25T12:57:47.052Z</time>
      </trkpt>
      <trkpt lat="48.68274" lon="2.07972">
        <ele>144.408</ele>
        <time>2012-11-25T12:57:53.852Z</time>
      </trkpt>
      <trkpt lat="48.68276" lon="2.07985">
        <ele>144.351</ele>
        <time>2012-11-25T12:58:00.839Z</time>
      </trkpt>
      <trkpt lat="48.68279" lon="2.07998">
        <ele>144.754</ele>
        <time>2012-11-25T12:58:08.346Z</time>
      </trkpt>
      <trkpt lat="48.68281" lon="2.08014">
        <ele>145.934</ele>
        <time>2012-11-25T12:58:17.809Z</time>
      </trkpt>
      <trkpt lat="48.68285" lon="2.08027">
        <ele>147.485</ele>
        <time>2012-11-25T12:58:26.224Z</time>
      </trkpt>
      <trkpt lat="48.68286" lon="2.08041">
        <ele>148.666</ele>
        <time>2012-11-25T12:58:33.999Z</time>
      </trkpt>
      <trkpt lat="48.68289" lon="2.08055">
        <ele>149.244</ele>
        <time>2012-11-25T12:58:41.764Z</time>
      </trkpt>
      <trkpt lat="48.68291" lon="2.08069">
        <ele>149.396</ele>
        <time>2012-11-25T12:58:49.376Z</time>
      </trkpt>
      <trkpt lat="48.68294" lon="2.08082">
        <ele>149.809</ele>
        <time>2012-11-25T12:58:56.805Z</time>
      </trkpt>
      <trkpt lat="48.68296" lon="2.08097">
        <ele>150.878</ele>
        <time>2012-11-25T12:59:05.054Z</time>
      </trkpt>
      <trkpt lat="48.683" lon="2.08111">
        <ele>152.032</ele>
        <time>2012-11-25T12:59:14.045Z</time>
      </trkpt>
      <trkpt lat="48.68303" lon="2.08124">
        <ele>152.749</ele>
        <time>2012-11-25T12:59:22.263Z</time>
      </trkpt>
      <trkpt lat="48.68307" lon="2.08137">
        <ele>153.142</ele>
        <time>2012-11-25T12:59:30.225Z</time>
      </trkpt>
      <trkpt lat="48.68312" lon="2.08149">
        <ele>153.427</ele>
        <time>2012-11-25T12:59:38.044Z</time>
      </trkpt>
      <trkpt lat="48.68317" lon="2.0816">
        <ele>153.757</ele>
        <time>2012-11-25T12:59:45.774Z</time>
      </trkpt>
      <trkpt lat="48.68322" lon="2.08173">
        <ele>154.127</ele>
        <time>2012-11-25T12:59:53.934Z</time>
      </trkpt>
      <trkpt lat="48.68328" lon="2.08185">
        <ele>154.641</ele>
        <time>2012-11-25T13:00:01.357Z</time>
      </trkpt>
      <trkpt lat="48.68334" lon="2.08195">
        <ele>155.513</ele>
        <time>2012-11-25T13:00:08.485Z</time>
      </trkpt>
      <trkpt lat="48.6834" lon="2.08206">
        <ele>156.993</ele>
        <time>2012-11-25T13:00:16.379Z</time>
      </trkpt>
      <trkpt lat="48.68344" lon="2.08218">
        <ele>158.891</ele>
        <time>2012-11-25T13:00:24.598Z</time>
      </trkpt>
      <trkpt lat="48.68352" lon="2.08229">
        <ele>159.896</ele>
        <time>2012-11-25T13:00:33.814Z</time>
      </trkpt>
      <trkpt lat="48.68356" lon="2.08242">
        <ele>159.078</ele>
        <time>2012-11-25T13:00:42.231Z</time>
      </trkpt>
      <trkpt lat="48.68361" lon="2.08253">
        <ele>157.972</ele>
        <time>2012-11-25T13:00:48.560Z</time>
      </trkpt>
      <trkpt lat="48.68369" lon="2.08263">
        <ele>157.806</ele>
        <time>2012-11-25T13:00:55.541Z</time>
      </trkpt>
      <trkpt lat="48.68377" lon="2.08272">
        <ele>157.718</ele>
        <time>2012-11-25T13:01:02.141Z</time>
      </trkpt>
      <trkpt lat="48.68382" lon="2.08283">
        <ele>157.241</ele>
        <time>2012-11-25T13:01:09.722Z</time>
      </trkpt>
      <trkpt lat="48.68388" lon="2.08295">
        <ele>157.314</ele>
        <time>2012-11-25T13:01:19.528Z</time>
      </trkpt>
      <trkpt lat="48.68395" lon="2.08307">
        <ele>158.262</ele>
        <time>2012-11-25T13:01:28.876Z</time>
      </trkpt>
      <trkpt lat="48.68401" lon="2.08317">
        <ele>159.413</ele>
        <time>2012-11-25T13:01:36.636Z</time>
      </trkpt>
      <trkpt lat="48.68401" lon="2.08317">
        <ele>160.051</ele>
        <time>2012-11-25T13:01:50.639Z</time>
      </trkpt>
      <trkpt lat="48.68401" lon="2.08317">
        <ele>160.167</ele>
        <time>2012-11-25T13:04:36.869Z</time>
      </trkpt>
      <trkpt lat="48.68416" lon="2.08326">
        <ele>160.027</ele>
        <time>2012-11-25T13:05:49.054Z</time>
      </trkpt>
      <trkpt lat="48.68425" lon="2.08331">
        <ele>159.801</ele>
        <time>2012-11-25T13:05:58.131Z</time>
      </trkpt>
      <trkpt lat="48.68434" lon="2.08336">
        <ele>159.514</ele>
        <time>2012-11-25T13:06:06.108Z</time>
      </trkpt>
      <trkpt lat="48.68443" lon="2.08342">
        <ele>159.28</ele>
        <time>2012-11-25T13:06:14.684Z</time>
      </trkpt>
      <trkpt lat="48.68452" lon="2.08348">
        <ele>159.187</ele>
        <time>2012-11-25T13:06:23.382Z</time>
      </trkpt>
      <trkpt lat="48.68461" lon="2.08352">
        <ele>159.259</ele>
        <time>2012-11-25T13:06:31.762Z</time>
      </trkpt>
      <trkpt lat="48.68469" lon="2.08356">
        <ele>159.483</ele>
        <time>2012-11-25T13:06:39.684Z</time>
      </trkpt>
      <trkpt lat="48.68478" lon="2.0836">
        <ele>159.707</ele>
        <time>2012-11-25T13:06:47.573Z</time>
      </trkpt>
      <trkpt lat="48.68487" lon="2.08363">
        <ele>159.944</ele>
        <time>2012-11-25T13:06:55.336Z</time>
      </trkpt>
      <trkpt lat="48.68496" lon="2.08366">
        <ele>160.305</ele>
        <time>2012-11-25T13:07:03.740Z</time>
      </trkpt>
      <trkpt lat="48.68506" lon="2.0837">
        <ele>160.641</ele>
        <time>2012-11-25T13:07:12.437Z</time>
      </trkpt>
      <trkpt lat="48.68515" lon="2.08372">
        <ele>160.551</ele>
        <time>2012-11-25T13:07:20.699Z</time>
      </trkpt>
      <trkpt lat="48.68525" lon="2.08374">
        <ele>159.943</ele>
        <time>2012-11-25T13:07:28.493Z</time>
      </trkpt>
      <trkpt lat="48.68534" lon="2.08377">
        <ele>159.271</ele>
        <time>2012-11-25T13:07:35.950Z</time>
      </trkpt>
      <trkpt lat="48.68544" lon="2.08379">
        <ele>158.939</ele>
        <time>2012-11-25T13:07:43.861Z</time>
      </trkpt>
      <trkpt lat="48.68554" lon="2.08381">
        <ele>158.881</ele>
        <time>2012-11-25T13:07:52.025Z</time>
      </trkpt>
      <trkpt lat="48.68563" lon="2.08385">
        <ele>158.867</ele>
        <time>2012-11-25T13:07:59.352Z</time>
      </trkpt>
      <trkpt lat="48.68573" lon="2.08386">
        <ele>158.841</ele>
        <time>2012-11-25T13:08:06.627Z</time>
      </trkpt>
      <trkpt lat="48.68582" lon="2.08389">
        <ele>159.155</ele>
        <time>2012-11-25T13:08:13.865Z</time>
      </trkpt>
      <trkpt lat="48.68591" lon="2.08393">
        <ele>159.855</ele>
        <time>2012-11-25T13:08:21.856Z</time>
      </trkpt>
      <trkpt lat="48.686" lon="2.08396">
        <ele>160.504</ele>
        <time>2012-11-25T13:08:29.245Z</time>
      </trkpt>
      <trkpt lat="48.6861" lon="2.08398">
        <ele>160.906</ele>
        <time>2012-11-25T13:08:37.027Z</time>
      </trkpt>
      <trkpt lat="48.68619" lon="2.084">
        <ele>161.059</ele>
        <time>2012-11-25T13:08:44.496Z</time>
      </trkpt>
      <trkpt lat="48.68629" lon="2.08404">
        <ele>161.386</ele>
        <time>2012-11-25T13:08:51.782Z</time>
      </trkpt>
      <trkpt lat="48.68638" lon="2.08405">
        <ele>162.288</ele>
        <time>2012-11-25T13:08:59.055Z</time>
      </trkpt>
      <trkpt lat="48.68647" lon="2.08408">
        <ele>163.056</ele>
        <time>2012-11-25T13:09:06.226Z</time>
      </trkpt>
      <trkpt lat="48.68657" lon="2.0841">
        <ele>162.819</ele>
        <time>2012-11-25T13:09:13.983Z</time>
      </trkpt>
      <trkpt lat="48.68667" lon="2.08412">
        <ele>162.52</ele>
        <time>2012-11-25T13:09:22.443Z</time>
      </trkpt>
      <trkpt lat="48.68676" lon="2.08416">
        <ele>162.245</ele>
        <time>2012-11-25T13:09:30.863Z</time>
      </trkpt>
      <trkpt lat="48.68685" lon="2.0842">
        <ele>162.264</ele>
        <time>2012-11-25T13:09:38.554Z</time>
      </trkpt>
      <trkpt lat="48.68695" lon="2.08422">
        <ele>162.251</ele>
        <time>2012-11-25T13:09:46.706Z</time>
      </trkpt>
      <trkpt lat="48.68704" lon="2.08425">
        <ele>162.023</ele>
        <time>2012-11-25T13:09:55.208Z</time>
      </trkpt>
      <trkpt lat="48.68713" lon="2.08429">
        <ele>161.54</ele>
        <time>2012-11-25T13:10:02.884Z</time>
      </trkpt>
      <trkpt lat="48.68724" lon="2.08433">
        <ele>161.084</ele>
        <time>2012-11-25T13:10:10.772Z</time>
      </trkpt>
      <trkpt lat="48.68734" lon="2.08435">
        <ele>160.786</ele>
        <time>2012-11-25T13:10:18.578Z</time>
      </trkpt>
      <trkpt lat="48.68743" lon="2.08437">
        <ele>160.405</ele>
        <time>2012-11-25T13:10:26.453Z</time>
      </trkpt>
      <trkpt lat="48.68752" lon="2.08441">
        <ele>159.898</ele>
        <time>2012-11-25T13:10:34.384Z</time>
      </trkpt>
      <trkpt lat="48.68761" lon="2.08445">
        <ele>159.494</ele>
        <time>2012-11-25T13:10:43.283Z</time>
      </trkpt>
      <trkpt lat="48.68771" lon="2.08447">
        <ele>159.32</ele>
        <time>2012-11-25T13:10:50.918Z</time>
      </trkpt>
      <trkpt lat="48.68781" lon="2.08448">
        <ele>159.302</ele>
        <time>2012-11-25T13:10:58.536Z</time>
      </trkpt>
      <trkpt lat="48.68791" lon="2.08448">
        <ele>159.324</ele>
        <time>2012-11-25T13:11:05.733Z</time>
      </trkpt>
      <trkpt lat="48.68801" lon="2.08446">
        <ele>159.31</ele>
        <time>2012-11-25T13:11:12.593Z</time>
      </trkpt>
      <trkpt lat="48.6881" lon="2.08444">
        <ele>159.303</ele>
        <time>2012-11-25T13:11:19.707Z</time>
      </trkpt>
      <trkpt lat="48.68819" lon="2.08441">
        <ele>159.402</ele>
        <time>2012-11-25T13:11:27.606Z</time>
      </trkpt>
      <trkpt lat="48.68827" lon="2.08435">
        <ele>159.596</ele>
        <time>2012-11-25T13:11:35.062Z</time>
      </trkpt>
      <trkpt lat="48.68837" lon="2.0843">
        <ele>159.617</ele>
        <time>2012-11-25T13:11:42.825Z</time>
      </trkpt>
      <trkpt lat="48.68845" lon="2.08425">
        <ele>159.452</ele>
        <time>2012-11-25T13:11:50.357Z</time>
      </trkpt>
      <trkpt lat="48.68854" lon="2.08419">
        <ele>159.294</ele>
        <time>2012-11-25T13:11:58.320Z</time>
      </trkpt>
      <trkpt lat="48.68863" lon="2.08415">
        <ele>159.196</ele>
        <time>2012-11-25T13:12:05.611Z</time>
      </trkpt>
      <trkpt lat="48.68872" lon="2.0841">
        <ele>159.108</ele>
        <time>2012-11-25T13:12:13.694Z</time>
      </trkpt>
      <trkpt lat="48.68882" lon="2.08408">
        <ele>158.988</ele>
        <time>2012-11-25T13:12:21.372Z</time>
      </trkpt>
      <trkpt lat="48.68892" lon="2.08408">
        <ele>158.83</ele>
        <time>2012-11-25T13:12:29.481Z</time>
      </trkpt>
      <trkpt lat="48.68901" lon="2.08409">
        <ele>158.743</ele>
        <time>2012-11-25T13:12:36.953Z</time>
      </trkpt>
      <trkpt lat="48.6891" lon="2.08414">
        <ele>158.627</ele>
        <time>2012-11-25T13:12:46.302Z</time>
      </trkpt>
      <trkpt lat="48.68916" lon="2.08424">
        <ele>158.391</ele>
        <time>2012-11-25T13:12:56.422Z</time>
      </trkpt>
      <trkpt lat="48.68923" lon="2.08434">
        <ele>158.159</ele>
        <time>2012-11-25T13:13:06.815Z</time>
      </trkpt>
      <trkpt lat="48.68924" lon="2.08448">
        <ele>158.036</ele>
        <time>2012-11-25T13:13:17.607Z</time>
      </trkpt>
      <trkpt lat="48.68932" lon="2.08456">
        <ele>157.979</ele>
        <time>2012-11-25T13:13:27.463Z</time>
      </trkpt>
      <trkpt lat="48.6894" lon="2.08463">
        <ele>157.847</ele>
        <time>2012-11-25T13:13:35.723Z</time>
      </trkpt>
      <trkpt lat="48.68949" lon="2.08472">
        <ele>157.566</ele>
        <time>2012-11-25T13:13:44.711Z</time>
      </trkpt>
      <trkpt lat="48.68956" lon="2.0848">
        <ele>157.256</ele>
        <time>2012-11-25T13:13:53.319Z</time>
      </trkpt>
      <trkpt lat="48.68964" lon="2.08488">
        <ele>157.018</ele>
        <time>2012-11-25T13:14:01.864Z</time>
      </trkpt>
      <trkpt lat="48.68972" lon="2.08495">
        <ele>156.836</ele>
        <time>2012-11-25T13:14:10.397Z</time>
      </trkpt>
      <trkpt lat="48.6898" lon="2.08502">
        <ele>156.766</ele>
        <time>2012-11-25T13:14:18.664Z</time>
      </trkpt>
      <trkpt lat="48.68988" lon="2.0851">
        <ele>156.83</ele>
        <time>2012-11-25T13:14:26.952Z</time>
      </trkpt>
      <trkpt lat="48.68996" lon="2.08518">
        <ele>156.998</ele>
        <time>2012-11-25T13:14:35.256Z</time>
      </trkpt>
      <trkpt lat="48.69005" lon="2.08525">
        <ele>157.16</ele>
        <time>2012-11-25T13:14:44.911Z</time>
      </trkpt>
      <trkpt lat="48.69012" lon="2.08534">
        <ele>157.245</ele>
        <time>2012-11-25T13:14:54.559Z</time>
      </trkpt>
      <trkpt lat="48.6902" lon="2.08541">
        <ele>157.317</ele>
        <time>2012-11-25T13:15:04.109Z</time>
      </trkpt>
      <trkpt lat="48.69028" lon="2.08547">
        <ele>157.175</ele>
        <time>2012-11-25T13:15:14.173Z</time>
      </trkpt>
      <trkpt lat="48.69036" lon="2.08556">
        <ele>156.609</ele>
        <time>2012-11-25T13:15:23.536Z</time>
      </trkpt>
      <trkpt lat="48.69044" lon="2.08564">
        <ele>155.986</ele>
        <time>2012-11-25T13:15:33.232Z</time>
      </trkpt>
      <trkpt lat="48.69051" lon="2.08572">
        <ele>155.585</ele>
        <time>2012-11-25T13:15:43.114Z</time>
      </trkpt>
      <trkpt lat="48.6906" lon="2.0858">
        <ele>155.094</ele>
        <time>2012-11-25T13:15:53.245Z</time>
      </trkpt>
      <trkpt lat="48.69069" lon="2.08582">
        <ele>154.39</ele>
        <time>2012-11-25T13:16:02.739Z</time>
      </trkpt>
      <trkpt lat="48.69074" lon="2.0857">
        <ele>153.808</ele>
        <time>2012-11-25T13:16:11.966Z</time>
      </trkpt>
      <trkpt lat="48.69084" lon="2.08573">
        <ele>153.572</ele>
        <time>2012-11-25T13:16:21.232Z</time>
      </trkpt>
      <trkpt lat="48.69091" lon="2.08582">
        <ele>153.56</ele>
        <time>2012-11-25T13:16:29.356Z</time>
      </trkpt>
      <trkpt lat="48.691" lon="2.08588">
        <ele>153.633</ele>
        <time>2012-11-25T13:16:37.922Z</time>
      </trkpt>
      <trkpt lat="48.69108" lon="2.08596">
        <ele>153.704</ele>
        <time>2012-11-25T13:16:46.392Z</time>
      </trkpt>
      <trkpt lat="48.69116" lon="2.08603">
        <ele>153.739</ele>
        <time>2012-11-25T13:16:53.817Z</time>
      </trkpt>
      <trkpt lat="48.69124" lon="2.08611">
        <ele>153.758</ele>
        <time>2012-11-25T13:17:02.485Z</time>
      </trkpt>
      <trkpt lat="48.69132" lon="2.08619">
        <ele>153.777</ele>
        <time>2012-11-25T13:17:11.989Z</time>
      </trkpt>
      <trkpt lat="48.69141" lon="2.08624">
        <ele>153.786</ele>
        <time>2012-11-25T13:17:21.760Z</time>
      </trkpt>
      <trkpt lat="48.69149" lon="2.08634">
        <ele>153.873</ele>
        <time>2012-11-25T13:17:30.450Z</time>
      </trkpt>
      <trkpt lat="48.69156" lon="2.08643">
        <ele>154.094</ele>
        <time>2012-11-25T13:17:39.872Z</time>
      </trkpt>
      <trkpt lat="48.69162" lon="2.08653">
        <ele>154.392</ele>
        <time>2012-11-25T13:17:50.037Z</time>
      </trkpt>
      <trkpt lat="48.69171" lon="2.08661">
        <ele>154.684</ele>
        <time>2012-11-25T13:17:59.315Z</time>
      </trkpt>
      <trkpt lat="48.6918" lon="2.08668">
        <ele>154.864</ele>
        <time>2012-11-25T13:18:06.946Z</time>
      </trkpt>
      <trkpt lat="48.69188" lon="2.08673">
        <ele>154.87</ele>
        <time>2012-11-25T13:18:14.616Z</time>
      </trkpt>
      <trkpt lat="48.69195" lon="2.08682">
        <ele>154.823</ele>
        <time>2012-11-25T13:18:21.888Z</time>
      </trkpt>
      <trkpt lat="48.69204" lon="2.08688">
        <ele>154.808</ele>
        <time>2012-11-25T13:18:30.010Z</time>
      </trkpt>
      <trkpt lat="48.69212" lon="2.08694">
        <ele>154.635</ele>
        <time>2012-11-25T13:18:38.507Z</time>
      </trkpt>
      <trkpt lat="48.6922" lon="2.08703">
        <ele>154.183</ele>
        <time>2012-11-25T13:18:47.259Z</time>
      </trkpt>
      <trkpt lat="48.69227" lon="2.08711">
        <ele>153.568</ele>
        <time>2012-11-25T13:18:55.572Z</time>
      </trkpt>
      <trkpt lat="48.69235" lon="2.08719">
        <ele>152.846</ele>
        <time>2012-11-25T13:19:03.735Z</time>
      </trkpt>
      <trkpt lat="48.69244" lon="2.08727">
        <ele>151.962</ele>
        <time>2012-11-25T13:19:11.781Z</time>
      </trkpt>
      <trkpt lat="48.69252" lon="2.08735">
        <ele>150.508</ele>
        <time>2012-11-25T13:19:19.638Z</time>
      </trkpt>
      <trkpt lat="48.69259" lon="2.08742">
        <ele>150.236</ele>
        <time>2012-11-25T13:19:27.419Z</time>
      </trkpt>
      <trkpt lat="48.69268" lon="2.0875">
        <ele>150.279</ele>
        <time>2012-11-25T13:19:35.905Z</time>
      </trkpt>
      <trkpt lat="48.69276" lon="2.08757">
        <ele>150.321</ele>
        <time>2012-11-25T13:19:44.172Z</time>
      </trkpt>
      <trkpt lat="48.69284" lon="2.08763">
        <ele>150.397</ele>
        <time>2012-11-25T13:19:52.280Z</time>
      </trkpt>
      <trkpt lat="48.69292" lon="2.08771">
        <ele>150.549</ele>
        <time>2012-11-25T13:20:00.601Z</time>
      </trkpt>
      <trkpt lat="48.69301" lon="2.0878">
        <ele>150.698</ele>
        <time>2012-11-25T13:20:10.290Z</time>
      </trkpt>
      <trkpt lat="48.6931" lon="2.08785">
        <ele>150.784</ele>
        <time>2012-11-25T13:20:19.659Z</time>
      </trkpt>
      <trkpt lat="48.6931" lon="2.08785">
        <ele>150.821</ele>
        <time>2012-11-25T13:20:28.694Z</time>
      </trkpt>
      <trkpt lat="48.6931" lon="2.08785">
        <ele>150.795</ele>
        <time>2012-11-25T13:20:28.794Z</time>
      </trkpt>
      <trkpt lat="48.69301" lon="2.08781">
        <ele>150.662</ele>
        <time>2012-11-25T13:21:32.930Z</time>
      </trkpt>
      <trkpt lat="48.693" lon="2.08766">
        <ele>150.632</ele>
        <time>2012-11-25T13:21:46.357Z</time>
      </trkpt>
      <trkpt lat="48.69302" lon="2.08753">
        <ele>150.617</ele>
        <time>2012-11-25T13:21:56.130Z</time>
      </trkpt>
      <trkpt lat="48.69305" lon="2.08739">
        <ele>150.492</ele>
        <time>2012-11-25T13:22:05.877Z</time>
      </trkpt>
      <trkpt lat="48.69307" lon="2.08725">
        <ele>150.185</ele>
        <time>2012-11-25T13:22:13.836Z</time>
      </trkpt>
      <trkpt lat="48.69307" lon="2.08711">
        <ele>149.872</ele>
        <time>2012-11-25T13:22:21.642Z</time>
      </trkpt>
      <trkpt lat="48.6931" lon="2.08696">
        <ele>149.725</ele>
        <time>2012-11-25T13:22:30.690Z</time>
      </trkpt>
      <trkpt lat="48.69314" lon="2.08684">
        <ele>149.955</ele>
        <time>2012-11-25T13:22:39.793Z</time>
      </trkpt>
      <trkpt lat="48.69318" lon="2.08671">
        <ele>150.69</ele>
        <time>2012-11-25T13:22:47.835Z</time>
      </trkpt>
      <trkpt lat="48.69322" lon="2.08658">
        <ele>151.524</ele>
        <time>2012-11-25T13:22:55.882Z</time>
      </trkpt>
      <trkpt lat="48.69322" lon="2.08643">
        <ele>152.032</ele>
        <time>2012-11-25T13:23:04.270Z</time>
      </trkpt>
      <trkpt lat="48.69324" lon="2.08628">
        <ele>152.252</ele>
        <time>2012-11-25T13:23:12.502Z</time>
      </trkpt>
      <trkpt lat="48.69329" lon="2.08615">
        <ele>152.221</ele>
        <time>2012-11-25T13:23:20.893Z</time>
      </trkpt>
      <trkpt lat="48.69333" lon="2.08603">
        <ele>151.93</ele>
        <time>2012-11-25T13:23:28.470Z</time>
      </trkpt>
      <trkpt lat="48.69336" lon="2.08589">
        <ele>151.381</ele>
        <time>2012-11-25T13:23:36.606Z</time>
      </trkpt>
      <trkpt lat="48.69339" lon="2.08575">
        <ele>150.678</ele>
        <time>2012-11-25T13:23:44.257Z</time>
      </trkpt>
      <trkpt lat="48.69343" lon="2.08561">
        <ele>150.123</ele>
        <time>2012-11-25T13:23:52.342Z</time>
      </trkpt>
      <trkpt lat="48.69347" lon="2.08548">
        <ele>149.908</ele>
        <time>2012-11-25T13:24:00.879Z</time>
      </trkpt>
      <trkpt lat="48.69353" lon="2.08538">
        <ele>149.907</ele>
        <time>2012-11-25T13:24:11.104Z</time>
      </trkpt>
      <trkpt lat="48.69362" lon="2.08533">
        <ele>149.967</ele>
        <time>2012-11-25T13:24:23.281Z</time>
      </trkpt>
      <trkpt lat="48.69372" lon="2.08533">
        <ele>150.013</ele>
        <time>2012-11-25T13:24:36.747Z</time>
      </trkpt>
      <trkpt lat="48.69381" lon="2.08537">
        <ele>150.123</ele>
        <time>2012-11-25T13:24:45.856Z</time>
      </trkpt>
      <trkpt lat="48.69391" lon="2.08541">
        <ele>150.366</ele>
        <time>2012-11-25T13:24:54.900Z</time>
      </trkpt>
      <trkpt lat="48.69401" lon="2.08545">
        <ele>150.474</ele>
        <time>2012-11-25T13:25:03.997Z</time>
      </trkpt>
      <trkpt lat="48.69408" lon="2.08553">
        <ele>150.236</ele>
        <time>2012-11-25T13:25:13.109Z</time>
      </trkpt>
      <trkpt lat="48.69417" lon="2.08556">
        <ele>150.219</ele>
        <time>2012-11-25T13:25:23.566Z</time>
      </trkpt>
      <trkpt lat="48.69426" lon="2.08554">
        <ele>150.228</ele>
        <time>2012-11-25T13:25:34.909Z</time>
      </trkpt>
      <trkpt lat="48.69435" lon="2.08553">
        <ele>150.226</ele>
        <time>2012-11-25T13:25:47.852Z</time>
      </trkpt>
      <trkpt lat="48.69444" lon="2.08552">
        <ele>149.933</ele>
        <time>2012-11-25T13:26:02.486Z</time>
      </trkpt>
      <trkpt lat="48.69453" lon="2.08549">
        <ele>149.196</ele>
        <time>2012-11-25T13:26:15.648Z</time>
      </trkpt>
      <trkpt lat="48.69453" lon="2.08549">
        <ele>148.44</ele>
        <time>2012-11-25T13:26:37.651Z</time>
      </trkpt>
      <trkpt lat="48.69453" lon="2.08549">
        <ele>148.076</ele>
        <time>2012-11-25T13:26:51.669Z</time>
      </trkpt>
      <trkpt lat="48.69453" lon="2.08549">
        <ele>147.981</ele>
        <time>2012-11-25T13:26:51.769Z</time>
      </trkpt>
      <trkpt lat="48.6947" lon="2.08559">
        <ele>147.949</ele>
        <time>2012-11-25T13:27:30.247Z</time>
      </trkpt>
      <trkpt lat="48.69478" lon="2.08554">
        <ele>147.912</ele>
        <time>2012-11-25T13:27:41.174Z</time>
      </trkpt>
      <trkpt lat="48.69485" lon="2.08544">
        <ele>147.832</ele>
        <time>2012-11-25T13:27:50.868Z</time>
      </trkpt>
      <trkpt lat="48.69492" lon="2.08534">
        <ele>147.562</ele>
        <time>2012-11-25T13:28:00.831Z</time>
      </trkpt>
      <trkpt lat="48.69501" lon="2.08527">
        <ele>146.657</ele>
        <time>2012-11-25T13:28:11.992Z</time>
      </trkpt>
      <trkpt lat="48.69508" lon="2.08519">
        <ele>144.96</ele>
        <time>2012-11-25T13:28:23.203Z</time>
      </trkpt>
      <trkpt lat="48.69516" lon="2.08511">
        <ele>143.088</ele>
        <time>2012-11-25T13:28:33.406Z</time>
      </trkpt>
      <trkpt lat="48.69525" lon="2.08512">
        <ele>141.758</ele>
        <time>2012-11-25T13:28:44.264Z</time>
      </trkpt>
      <trkpt lat="48.69534" lon="2.08516">
        <ele>141.268</ele>
        <time>2012-11-25T13:28:58.143Z</time>
      </trkpt>
      <trkpt lat="48.69544" lon="2.08516">
        <ele>141.383</ele>
        <time>2012-11-25T13:29:10.659Z</time>
      </trkpt>
      <trkpt lat="48.69551" lon="2.08525">
        <ele>141.417</ele>
        <time>2012-11-25T13:29:20.233Z</time>
      </trkpt>
      <trkpt lat="48.69561" lon="2.08525">
        <ele>141.101</ele>
        <time>2012-11-25T13:29:30.082Z</time>
      </trkpt>
      <trkpt lat="48.69569" lon="2.08533">
        <ele>140.163</ele>
        <time>2012-11-25T13:29:41.090Z</time>
      </trkpt>
      <trkpt lat="48.69578" lon="2.08538">
        <ele>138.446</ele>
        <time>2012-11-25T13:29:50.072Z</time>
      </trkpt>
      <trkpt lat="48.69585" lon="2.08547">
        <ele>136.731</ele>
        <time>2012-11-25T13:29:59.971Z</time>
      </trkpt>
      <trkpt lat="48.69594" lon="2.08552">
        <ele>135.587</ele>
        <time>2012-11-25T13:30:11.574Z</time>
      </trkpt>
      <trkpt lat="48.69603" lon="2.08557">
        <ele>134.558</ele>
        <time>2012-11-25T13:30:19.456Z</time>
      </trkpt>
      <trkpt lat="48.69612" lon="2.0856">
        <ele>133.432</ele>
        <time>2012-11-25T13:30:27.340Z</time>
      </trkpt>
      <trkpt lat="48.69623" lon="2.08561">
        <ele>132.552</ele>
        <time>2012-11-25T13:30:37.995Z</time>
      </trkpt>
      <trkpt lat="48.69633" lon="2.08557">
        <ele>131.934</ele>
        <time>2012-11-25T13:30:50.742Z</time>
      </trkpt>
      <trkpt lat="48.69642" lon="2.08555">
        <ele>131.301</ele>
        <time>2012-11-25T13:31:01.188Z</time>
      </trkpt>
      <trkpt lat="48.69651" lon="2.08548">
        <ele>130.776</ele>
        <time>2012-11-25T13:31:09.935Z</time>
      </trkpt>
      <trkpt lat="48.69659" lon="2.08537">
        <ele>130.446</ele>
        <time>2012-11-25T13:31:18.741Z</time>
      </trkpt>
      <trkpt lat="48.69668" lon="2.08532">
        <ele>130.137</ele>
        <time>2012-11-25T13:31:26.293Z</time>
      </trkpt>
      <trkpt lat="48.69674" lon="2.08521">
        <ele>129.884</ele>
        <time>2012-11-25T13:31:35.185Z</time>
      </trkpt>
      <trkpt lat="48.69682" lon="2.08512">
        <ele>129.694</ele>
        <time>2012-11-25T13:31:44.029Z</time>
      </trkpt>
      <trkpt lat="48.6969" lon="2.08506">
        <ele>129.461</ele>
        <time>2012-11-25T13:31:51.157Z</time>
      </trkpt>
      <trkpt lat="48.697" lon="2.08499">
        <ele>128.171</ele>
        <time>2012-11-25T13:31:58.300Z</time>
      </trkpt>
      <trkpt lat="48.69709" lon="2.08493">
        <ele>124.111</ele>
        <time>2012-11-25T13:32:07.131Z</time>
      </trkpt>
      <trkpt lat="48.69718" lon="2.08479">
        <ele>118.203</ele>
        <time>2012-11-25T13:32:20.179Z</time>
      </trkpt>
      <trkpt lat="48.69726" lon="2.0847">
        <ele>113.761</ele>
        <time>2012-11-25T13:32:30.438Z</time>
      </trkpt>
      <trkpt lat="48.6973" lon="2.08457">
        <ele>112.105</ele>
        <time>2012-11-25T13:32:40.163Z</time>
      </trkpt>
      <trkpt lat="48.69738" lon="2.08448">
        <ele>112.124</ele>
        <time>2012-11-25T13:32:51.024Z</time>
      </trkpt>
      <trkpt lat="48.69746" lon="2.08442">
        <ele>112.611</ele>
        <time>2012-11-25T13:33:01.960Z</time>
      </trkpt>
      <trkpt lat="48.69755" lon="2.08433">
        <ele>112.825</ele>
        <time>2012-11-25T13:33:13.142Z</time>
      </trkpt>
      <trkpt lat="48.69765" lon="2.08424">
        <ele>112.96</ele>
        <time>2012-11-25T13:33:25.392Z</time>
      </trkpt>
      <trkpt lat="48.69773" lon="2.08419">
        <ele>113.182</ele>
        <time>2012-11-25T13:33:35.525Z</time>
      </trkpt>
      <trkpt lat="48.69782" lon="2.08415">
        <ele>112.947</ele>
        <time>2012-11-25T13:33:44.400Z</time>
      </trkpt>
      <trkpt lat="48.69789" lon="2.08404">
        <ele>111.742</ele>
        <time>2012-11-25T13:33:51.890Z</time>
      </trkpt>
      <trkpt lat="48.69794" lon="2.08391">
        <ele>109.483</ele>
        <time>2012-11-25T13:33:59.283Z</time>
      </trkpt>
      <trkpt lat="48.69799" lon="2.08381">
        <ele>106.722</ele>
        <time>2012-11-25T13:34:05.938Z</time>
      </trkpt>
      <trkpt lat="48.69804" lon="2.08369">
        <ele>104.469</ele>
        <time>2012-11-25T13:34:13.176Z</time>
      </trkpt>
      <trkpt lat="48.6981" lon="2.08357">
        <ele>103.062</ele>
        <time>2012-11-25T13:34:22.429Z</time>
      </trkpt>
      <trkpt lat="48.69818" lon="2.08347">
        <ele>102.58</ele>
        <time>2012-11-25T13:34:31.985Z</time>
      </trkpt>
      <trkpt lat="48.69821" lon="2.08334">
        <ele>102.974</ele>
        <time>2012-11-25T13:34:41.377Z</time>
      </trkpt>
      <trkpt lat="48.69824" lon="2.0832">
        <ele>103.686</ele>
        <time>2012-11-25T13:34:51.888Z</time>
      </trkpt>
      <trkpt lat="48.69827" lon="2.08307">
        <ele>104.109</ele>
        <time>2012-11-25T13:35:01.768Z</time>
      </trkpt>
      <trkpt lat="48.69831" lon="2.08294">
        <ele>104.02</ele>
        <time>2012-11-25T13:35:10.648Z</time>
      </trkpt>
      <trkpt lat="48.69833" lon="2.0828">
        <ele>103.613</ele>
        <time>2012-11-25T13:35:19.050Z</time>
      </trkpt>
      <trkpt lat="48.69839" lon="2.08269">
        <ele>103.232</ele>
        <time>2012-11-25T13:35:28.005Z</time>
      </trkpt>
      <trkpt lat="48.69846" lon="2.0826">
        <ele>102.939</ele>
        <time>2012-11-25T13:35:37.426Z</time>
      </trkpt>
      <trkpt lat="48.69854" lon="2.0825">
        <ele>102.639</ele>
        <time>2012-11-25T13:35:47.675Z</time>
      </trkpt>
      <trkpt lat="48.6986" lon="2.08239">
        <ele>102.347</ele>
        <time>2012-11-25T13:35:56.484Z</time>
      </trkpt>
      <trkpt lat="48.69865" lon="2.08228">
        <ele>101.353</ele>
        <time>2012-11-25T13:36:05.335Z</time>
      </trkpt>
      <trkpt lat="48.6987" lon="2.08215">
        <ele>99.121</ele>
        <time>2012-11-25T13:36:14.948Z</time>
      </trkpt>
      <trkpt lat="48.69873" lon="2.082">
        <ele>96.76</ele>
        <time>2012-11-25T13:36:23.557Z</time>
      </trkpt>
      <trkpt lat="48.6988" lon="2.08188">
        <ele>95.493</ele>
        <time>2012-11-25T13:36:32.349Z</time>
      </trkpt>
      <trkpt lat="48.69884" lon="2.08176">
        <ele>95.2</ele>
        <time>2012-11-25T13:36:40.410Z</time>
      </trkpt>
      <trkpt lat="48.69891" lon="2.08162">
        <ele>95.341</ele>
        <time>2012-11-25T13:36:49.357Z</time>
      </trkpt>
      <trkpt lat="48.69897" lon="2.0815">
        <ele>95.706</ele>
        <time>2012-11-25T13:36:58.151Z</time>
      </trkpt>
      <trkpt lat="48.69904" lon="2.08135">
        <ele>96.667</ele>
        <time>2012-11-25T13:37:09.139Z</time>
      </trkpt>
      <trkpt lat="48.69909" lon="2.08122">
        <ele>98.636</ele>
        <time>2012-11-25T13:37:17.856Z</time>
      </trkpt>
      <trkpt lat="48.69916" lon="2.08113">
        <ele>101.043</ele>
        <time>2012-11-25T13:37:26.495Z</time>
      </trkpt>
      <trkpt lat="48.69924" lon="2.08104">
        <ele>102.725</ele>
        <time>2012-11-25T13:37:35.030Z</time>
      </trkpt>
      <trkpt lat="48.69933" lon="2.08096">
        <ele>103.302</ele>
        <time>2012-11-25T13:37:45.202Z</time>
      </trkpt>
      <trkpt lat="48.6994" lon="2.08086">
        <ele>103.257</ele>
        <time>2012-11-25T13:37:56.275Z</time>
      </trkpt>
      <trkpt lat="48.69948" lon="2.08078">
        <ele>102.926</ele>
        <time>2012-11-25T13:38:07.342Z</time>
      </trkpt>
      <trkpt lat="48.69955" lon="2.08068">
        <ele>101.415</ele>
        <time>2012-11-25T13:38:16.050Z</time>
      </trkpt>
      <trkpt lat="48.69963" lon="2.08062">
        <ele>98.332</ele>
        <time>2012-11-25T13:38:23.409Z</time>
      </trkpt>
      <trkpt lat="48.6997" lon="2.08052">
        <ele>95.415</ele>
        <time>2012-11-25T13:38:30.764Z</time>
      </trkpt>
      <trkpt lat="48.69977" lon="2.08041">
        <ele>94.099</ele>
        <time>2012-11-25T13:38:39.825Z</time>
      </trkpt>
      <trkpt lat="48.69985" lon="2.08033">
        <ele>93.941</ele>
        <time>2012-11-25T13:38:48.564Z</time>
      </trkpt>
      <trkpt lat="48.69991" lon="2.08023">
        <ele>94.09</ele>
        <time>2012-11-25T13:38:57.532Z</time>
      </trkpt>
      <trkpt lat="48.69995" lon="2.08011">
        <ele>94.047</ele>
        <time>2012-11-25T13:39:06.351Z</time>
      </trkpt>
      <trkpt lat="48.69999" lon="2.07997">
        <ele>93.866</ele>
        <time>2012-11-25T13:39:15.357Z</time>
      </trkpt>
      <trkpt lat="48.70002" lon="2.0798">
        <ele>93.741</ele>
        <time>2012-11-25T13:39:24.106Z</time>
      </trkpt>
      <trkpt lat="48.70003" lon="2.07966">
        <ele>93.699</ele>
        <time>2012-11-25T13:39:31.191Z</time>
      </trkpt>
      <trkpt lat="48.70009" lon="2.07956">
        <ele>93.655</ele>
        <time>2012-11-25T13:39:39.349Z</time>
      </trkpt>
      <trkpt lat="48.70015" lon="2.07945">
        <ele>93.458</ele>
        <time>2012-11-25T13:39:50.610Z</time>
      </trkpt>
      <trkpt lat="48.70019" lon="2.07931">
        <ele>93.165</ele>
        <time>2012-11-25T13:40:01.466Z</time>
      </trkpt>
      <trkpt lat="48.70023" lon="2.07918">
        <ele>93.043</ele>
        <time>2012-11-25T13:40:08.962Z</time>
      </trkpt>
      <trkpt lat="48.70025" lon="2.07903">
        <ele>93.747</ele>
        <time>2012-11-25T13:40:14.736Z</time>
      </trkpt>
      <trkpt lat="48.70024" lon="2.07888">
        <ele>95.451</ele>
        <time>2012-11-25T13:40:20.488Z</time>
      </trkpt>
      <trkpt lat="48.70026" lon="2.07874">
        <ele>97.128</ele>
        <time>2012-11-25T13:40:26.211Z</time>
      </trkpt>
      <trkpt lat="48.70028" lon="2.0786">
        <ele>98.209</ele>
        <time>2012-11-25T13:40:33.066Z</time>
      </trkpt>
      <trkpt lat="48.70031" lon="2.07846">
        <ele>99.242</ele>
        <time>2012-11-25T13:40:42.135Z</time>
      </trkpt>
      <trkpt lat="48.70032" lon="2.07833">
        <ele>100.318</ele>
        <time>2012-11-25T13:40:52.502Z</time>
      </trkpt>
      <trkpt lat="48.70036" lon="2.07819">
        <ele>101.456</ele>
        <time>2012-11-25T13:41:03.642Z</time>
      </trkpt>
      <trkpt lat="48.70037" lon="2.07804">
        <ele>102.947</ele>
        <time>2012-11-25T13:41:13.391Z</time>
      </trkpt>
      <trkpt lat="48.70038" lon="2.0779">
        <ele>104.636</ele>
        <time>2012-11-25T13:41:22.065Z</time>
      </trkpt>
      <trkpt lat="48.7004" lon="2.07774">
        <ele>106.006</ele>
        <time>2012-11-25T13:41:30.460Z</time>
      </trkpt>
      <trkpt lat="48.70042" lon="2.07759">
        <ele>106.744</ele>
        <time>2012-11-25T13:41:39.806Z</time>
      </trkpt>
      <trkpt lat="48.70041" lon="2.07745">
        <ele>106.783</ele>
        <time>2012-11-25T13:41:49.201Z</time>
      </trkpt>
      <trkpt lat="48.70038" lon="2.07731">
        <ele>106.367</ele>
        <time>2012-11-25T13:41:58.716Z</time>
      </trkpt>
      <trkpt lat="48.70035" lon="2.07718">
        <ele>106.14</ele>
        <time>2012-11-25T13:42:07.236Z</time>
      </trkpt>
      <trkpt lat="48.70035" lon="2.07704">
        <ele>106.277</ele>
        <time>2012-11-25T13:42:15.171Z</time>
      </trkpt>
      <trkpt lat="48.70031" lon="2.0769">
        <ele>106.091</ele>
        <time>2012-11-25T13:42:23.639Z</time>
      </trkpt>
      <trkpt lat="48.70031" lon="2.07675">
        <ele>105.101</ele>
        <time>2012-11-25T13:42:30.805Z</time>
      </trkpt>
      <trkpt lat="48.70031" lon="2.0766">
        <ele>103.546</ele>
        <time>2012-11-25T13:42:38.461Z</time>
      </trkpt>
      <trkpt lat="48.70031" lon="2.07646">
        <ele>102.053</ele>
        <time>2012-11-25T13:42:46.641Z</time>
      </trkpt>
      <trkpt lat="48.70032" lon="2.07631">
        <ele>101.198</ele>
        <time>2012-11-25T13:42:54.879Z</time>
      </trkpt>
      <trkpt lat="48.70032" lon="2.07616">
        <ele>100.947</ele>
        <time>2012-11-25T13:43:02.519Z</time>
      </trkpt>
      <trkpt lat="48.70032" lon="2.07601">
        <ele>100.94</ele>
        <time>2012-11-25T13:43:09.316Z</time>
      </trkpt>
      <trkpt lat="48.70033" lon="2.07587">
        <ele>100.998</ele>
        <time>2012-11-25T13:43:15.251Z</time>
      </trkpt>
      <trkpt lat="48.70035" lon="2.07572">
        <ele>101.098</ele>
        <time>2012-11-25T13:43:22.675Z</time>
      </trkpt>
      <trkpt lat="48.70037" lon="2.07559">
        <ele>101.538</ele>
        <time>2012-11-25T13:43:30.790Z</time>
      </trkpt>
      <trkpt lat="48.70037" lon="2.07544">
        <ele>102.529</ele>
        <time>2012-11-25T13:43:40.244Z</time>
      </trkpt>
      <trkpt lat="48.7004" lon="2.0753">
        <ele>103.576</ele>
        <time>2012-11-25T13:43:50.242Z</time>
      </trkpt>
      <trkpt lat="48.70043" lon="2.07517">
        <ele>104.123</ele>
        <time>2012-11-25T13:44:01.577Z</time>
      </trkpt>
      <trkpt lat="48.70047" lon="2.07505">
        <ele>104.231</ele>
        <time>2012-11-25T13:44:12.501Z</time>
      </trkpt>
      <trkpt lat="48.70049" lon="2.07491">
        <ele>104.111</ele>
        <time>2012-11-25T13:44:20.479Z</time>
      </trkpt>
      <trkpt lat="48.7005" lon="2.07476">
        <ele>103.564</ele>
        <time>2012-11-25T13:44:28.379Z</time>
      </trkpt>
      <trkpt lat="48.70053" lon="2.07463">
        <ele>102.257</ele>
        <time>2012-11-25T13:44:35.690Z</time>
      </trkpt>
      <trkpt lat="48.70058" lon="2.07449">
        <ele>100.325</ele>
        <time>2012-11-25T13:44:43.979Z</time>
      </trkpt>
      <trkpt lat="48.70062" lon="2.07438">
        <ele>98.25</ele>
        <time>2012-11-25T13:44:51.739Z</time>
      </trkpt>
      <trkpt lat="48.70064" lon="2.07423">
        <ele>96.593</ele>
        <time>2012-11-25T13:44:59.327Z</time>
      </trkpt>
      <trkpt lat="48.70066" lon="2.07409">
        <ele>95.752</ele>
        <time>2012-11-25T13:45:06.138Z</time>
      </trkpt>
      <trkpt lat="48.70069" lon="2.07395">
        <ele>95.514</ele>
        <time>2012-11-25T13:45:13.090Z</time>
      </trkpt>
      <trkpt lat="48.70071" lon="2.07381">
        <ele>95.387</ele>
        <time>2012-11-25T13:45:20.966Z</time>
      </trkpt>
      <trkpt lat="48.70075" lon="2.07368">
        <ele>95.181</ele>
        <time>2012-11-25T13:45:28.932Z</time>
      </trkpt>
      <trkpt lat="48.70079" lon="2.07354">
        <ele>94.885</ele>
        <time>2012-11-25T13:45:37.520Z</time>
      </trkpt>
      <trkpt lat="48.70082" lon="2.07339">
        <ele>94.527</ele>
        <time>2012-11-25T13:45:45.417Z</time>
      </trkpt>
      <trkpt lat="48.70084" lon="2.07324">
        <ele>94.249</ele>
        <time>2012-11-25T13:45:52.775Z</time>
      </trkpt>
      <trkpt lat="48.70087" lon="2.07309">
        <ele>94.142</ele>
        <time>2012-11-25T13:46:01.027Z</time>
      </trkpt>
      <trkpt lat="48.7009" lon="2.07295">
        <ele>93.979</ele>
        <time>2012-11-25T13:46:09.641Z</time>
      </trkpt>
      <trkpt lat="48.70093" lon="2.07281">
        <ele>93.415</ele>
        <time>2012-11-25T13:46:19.770Z</time>
      </trkpt>
      <trkpt lat="48.70096" lon="2.07268">
        <ele>92.078</ele>
        <time>2012-11-25T13:46:27.985Z</time>
      </trkpt>
      <trkpt lat="48.70099" lon="2.07254">
        <ele>89.919</ele>
        <time>2012-11-25T13:46:35.619Z</time>
      </trkpt>
      <trkpt lat="48.701" lon="2.0724">
        <ele>87.599</ele>
        <time>2012-11-25T13:46:43.244Z</time>
      </trkpt>
      <trkpt lat="48.70103" lon="2.07224">
        <ele>85.976</ele>
        <time>2012-11-25T13:46:51.646Z</time>
      </trkpt>
      <trkpt lat="48.70103" lon="2.07209">
        <ele>85.284</ele>
        <time>2012-11-25T13:46:59.142Z</time>
      </trkpt>
      <trkpt lat="48.70103" lon="2.07195">
        <ele>85.221</ele>
        <time>2012-11-25T13:47:05.905Z</time>
      </trkpt>
      <trkpt lat="48.70102" lon="2.07181">
        <ele>85.368</ele>
        <time>2012-11-25T13:47:13.805Z</time>
      </trkpt>
      <trkpt lat="48.70101" lon="2.07165">
        <ele>85.35</ele>
        <time>2012-11-25T13:47:22.677Z</time>
      </trkpt>
      <trkpt lat="48.70101" lon="2.07165">
        <ele>85.024</ele>
        <time>2012-11-25T13:47:34.679Z</time>
      </trkpt>
      <trkpt lat="48.70101" lon="2.07165">
        <ele>84.701</ele>
        <time>2012-11-25T13:47:34.779Z</time>
      </trkpt>
      <trkpt lat="48.70102" lon="2.07149">
        <ele>84.667</ele>
        <time>2012-11-25T13:47:47.042Z</time>
      </trkpt>
      <trkpt lat="48.70107" lon="2.07136">
        <ele>84.61</ele>
        <time>2012-11-25T13:47:54.229Z</time>
      </trkpt>
      <trkpt lat="48.70114" lon="2.07127">
        <ele>84.418</ele>
        <time>2012-11-25T13:48:00.957Z</time>
      </trkpt>
      <trkpt lat="48.70121" lon="2.07115">
        <ele>84.449</ele>
        <time>2012-11-25T13:48:08.497Z</time>
      </trkpt>
      <trkpt lat="48.70126" lon="2.07103">
        <ele>84.712</ele>
        <time>2012-11-25T13:48:16.110Z</time>
      </trkpt>
      <trkpt lat="48.70132" lon="2.07091">
        <ele>84.663</ele>
        <time>2012-11-25T13:48:23.861Z</time>
      </trkpt>
      <trkpt lat="48.70139" lon="2.07082">
        <ele>84.109</ele>
        <time>2012-11-25T13:48:30.851Z</time>
      </trkpt>
      <trkpt lat="48.70146" lon="2.07071">
        <ele>83.457</ele>
        <time>2012-11-25T13:48:38.675Z</time>
      </trkpt>
      <trkpt lat="48.70152" lon="2.07059">
        <ele>83.116</ele>
        <time>2012-11-25T13:48:45.668Z</time>
      </trkpt>
      <trkpt lat="48.70152" lon="2.07059">
        <ele>83.029</ele>
        <time>2012-11-25T13:48:57.671Z</time>
      </trkpt>
      <trkpt lat="48.70152" lon="2.07059">
        <ele>83.013</ele>
        <time>2012-11-25T13:48:57.771Z</time>
      </trkpt>
      <trkpt lat="48.7016" lon="2.07045">
        <ele>82.978</ele>
        <time>2012-11-25T13:49:13.540Z</time>
      </trkpt>
      <trkpt lat="48.70167" lon="2.07035">
        <ele>82.944</ele>
        <time>2012-11-25T13:49:20.786Z</time>
      </trkpt>
      <trkpt lat="48.70174" lon="2.07025">
        <ele>82.756</ele>
        <time>2012-11-25T13:49:28.794Z</time>
      </trkpt>
      <trkpt lat="48.70178" lon="2.07013">
        <ele>82.066</ele>
        <time>2012-11-25T13:49:36.767Z</time>
      </trkpt>
      <trkpt lat="48.70185" lon="2.07001">
        <ele>80.991</ele>
        <time>2012-11-25T13:49:45.707Z</time>
      </trkpt>
      <trkpt lat="48.70191" lon="2.0699">
        <ele>80.007</ele>
        <time>2012-11-25T13:49:53.589Z</time>
      </trkpt>
      <trkpt lat="48.70198" lon="2.0698">
        <ele>79.32</ele>
        <time>2012-11-25T13:50:00.998Z</time>
      </trkpt>
      <trkpt lat="48.70206" lon="2.06972">
        <ele>78.91</ele>
        <time>2012-11-25T13:50:08.290Z</time>
      </trkpt>
      <trkpt lat="48.70216" lon="2.06971">
        <ele>78.69</ele>
        <time>2012-11-25T13:50:16.696Z</time>
      </trkpt>
      <trkpt lat="48.70225" lon="2.06969">
        <ele>78.537</ele>
        <time>2012-11-25T13:50:24.853Z</time>
      </trkpt>
      <trkpt lat="48.70235" lon="2.06967">
        <ele>78.197</ele>
        <time>2012-11-25T13:50:35.068Z</time>
      </trkpt>
      <trkpt lat="48.70245" lon="2.06961">
        <ele>77.282</ele>
        <time>2012-11-25T13:50:45.693Z</time>
      </trkpt>
      <trkpt lat="48.70255" lon="2.06958">
        <ele>75.963</ele>
        <time>2012-11-25T13:50:56.436Z</time>
      </trkpt>
      <trkpt lat="48.70258" lon="2.06944">
        <ele>74.633</ele>
        <time>2012-11-25T13:51:06.869Z</time>
      </trkpt>
      <trkpt lat="48.70256" lon="2.0693">
        <ele>73.308</ele>
        <time>2012-11-25T13:51:14.823Z</time>
      </trkpt>
      <trkpt lat="48.70256" lon="2.06916">
        <ele>72.174</ele>
        <time>2012-11-25T13:51:22.734Z</time>
      </trkpt>
      <trkpt lat="48.70256" lon="2.06902">
        <ele>71.579</ele>
        <time>2012-11-25T13:51:30.774Z</time>
      </trkpt>
      <trkpt lat="48.70255" lon="2.06886">
        <ele>71.454</ele>
        <time>2012-11-25T13:51:38.947Z</time>
      </trkpt>
      <trkpt lat="48.70253" lon="2.06872">
        <ele>71.53</ele>
        <time>2012-11-25T13:51:46.701Z</time>
      </trkpt>
      <trkpt lat="48.70253" lon="2.06858">
        <ele>71.624</ele>
        <time>2012-11-25T13:51:54.686Z</time>
      </trkpt>
      <trkpt lat="48.70252" lon="2.06845">
        <ele>71.851</ele>
        <time>2012-11-25T13:52:03.028Z</time>
      </trkpt>
      <trkpt lat="48.70251" lon="2.0683">
        <ele>72.335</ele>
        <time>2012-11-25T13:52:11.516Z</time>
      </trkpt>
      <trkpt lat="48.70248" lon="2.06815">
        <ele>72.899</ele>
        <time>2012-11-25T13:52:20.041Z</time>
      </trkpt>
      <trkpt lat="48.70247" lon="2.06801">
        <ele>73.503</ele>
        <time>2012-11-25T13:52:28.268Z</time>
      </trkpt>
      <trkpt lat="48.70246" lon="2.06787">
        <ele>74.266</ele>
        <time>2012-11-25T13:52:36.693Z</time>
      </trkpt>
      <trkpt lat="48.70243" lon="2.06773">
        <ele>74.968</ele>
        <time>2012-11-25T13:52:44.922Z</time>
      </trkpt>
      <trkpt lat="48.70242" lon="2.06758">
        <ele>75.279</ele>
        <time>2012-11-25T13:52:53.861Z</time>
      </trkpt>
      <trkpt lat="48.70239" lon="2.06745">
        <ele>75.012</ele>
        <time>2012-11-25T13:53:01.854Z</time>
      </trkpt>
      <trkpt lat="48.70237" lon="2.06732">
        <ele>74.319</ele>
        <time>2012-11-25T13:53:09.795Z</time>
      </trkpt>
      <trkpt lat="48.70235" lon="2.06717">
        <ele>73.651</ele>
        <time>2012-11-25T13:53:18.436Z</time>
      </trkpt>
      <trkpt lat="48.70231" lon="2.06704">
        <ele>73.197</ele>
        <time>2012-11-25T13:53:27.511Z</time>
      </trkpt>
      <trkpt lat="48.70228" lon="2.06691">
        <ele>72.871</ele>
        <time>2012-11-25T13:53:35.323Z</time>
      </trkpt>
      <trkpt lat="48.70224" lon="2.06677">
        <ele>72.672</ele>
        <time>2012-11-25T13:53:42.468Z</time>
      </trkpt>
      <trkpt lat="48.7022" lon="2.06664">
        <ele>72.68</ele>
        <time>2012-11-25T13:53:49.943Z</time>
      </trkpt>
      <trkpt lat="48.70215" lon="2.06652">
        <ele>72.937</ele>
        <time>2012-11-25T13:53:58.278Z</time>
      </trkpt>
      <trkpt lat="48.70214" lon="2.06637">
        <ele>73.211</ele>
        <time>2012-11-25T13:54:09.694Z</time>
      </trkpt>
      <trkpt lat="48.70211" lon="2.06624">
        <ele>73.517</ele>
        <time>2012-11-25T13:54:19.654Z</time>
      </trkpt>
      <trkpt lat="48.70207" lon="2.06609">
        <ele>74.122</ele>
        <time>2012-11-25T13:54:29.282Z</time>
      </trkpt>
      <trkpt lat="48.70204" lon="2.06595">
        <ele>74.994</ele>
        <time>2012-11-25T13:54:38.060Z</time>
      </trkpt>
      <trkpt lat="48.70201" lon="2.06581">
        <ele>76.04</ele>
        <time>2012-11-25T13:54:47.397Z</time>
      </trkpt>
      <trkpt lat="48.70195" lon="2.06568">
        <ele>77.107</ele>
        <time>2012-11-25T13:54:57.675Z</time>
      </trkpt>
      <trkpt lat="48.70195" lon="2.06568">
        <ele>77.675</ele>
        <time>2012-11-25T13:55:07.661Z</time>
      </trkpt>
      <trkpt lat="48.70195" lon="2.06568">
        <ele>77.675</ele>
        <time>2012-11-25T13:55:07.761Z</time>
      </trkpt>
      <trkpt lat="48.70191" lon="2.06549">
        <ele>77.579</ele>
        <time>2012-11-25T13:55:24.402Z</time>
      </trkpt>
      <trkpt lat="48.70185" lon="2.06536">
        <ele>77.851</ele>
        <time>2012-11-25T13:55:34.466Z</time>
      </trkpt>
      <trkpt lat="48.70181" lon="2.06524">
        <ele>78.549</ele>
        <time>2012-11-25T13:55:43.458Z</time>
      </trkpt>
      <trkpt lat="48.70178" lon="2.0651">
        <ele>79.297</ele>
        <time>2012-11-25T13:55:52.511Z</time>
      </trkpt>
      <trkpt lat="48.70174" lon="2.06498">
        <ele>79.709</ele>
        <time>2012-11-25T13:56:01.287Z</time>
      </trkpt>
      <trkpt lat="48.70171" lon="2.06483">
        <ele>80.17</ele>
        <time>2012-11-25T13:56:10.130Z</time>
      </trkpt>
      <trkpt lat="48.70166" lon="2.06471">
        <ele>81.073</ele>
        <time>2012-11-25T13:56:18.061Z</time>
      </trkpt>
      <trkpt lat="48.7016" lon="2.06459">
        <ele>82.057</ele>
        <time>2012-11-25T13:56:27.912Z</time>
      </trkpt>
      <trkpt lat="48.70156" lon="2.06446">
        <ele>82.843</ele>
        <time>2012-11-25T13:56:38.457Z</time>
      </trkpt>
      <trkpt lat="48.70151" lon="2.06435">
        <ele>83.37</ele>
        <time>2012-11-25T13:56:47.438Z</time>
      </trkpt>
      <trkpt lat="48.70144" lon="2.06423">
        <ele>83.511</ele>
        <time>2012-11-25T13:56:56.035Z</time>
      </trkpt>
      <trkpt lat="48.70139" lon="2.06412">
        <ele>83.393</ele>
        <time>2012-11-25T13:57:04.036Z</time>
      </trkpt>
      <trkpt lat="48.70133" lon="2.06398">
        <ele>83.281</ele>
        <time>2012-11-25T13:57:13.784Z</time>
      </trkpt>
      <trkpt lat="48.70126" lon="2.06386">
        <ele>83.325</ele>
        <time>2012-11-25T13:57:22.812Z</time>
      </trkpt>
      <trkpt lat="48.70123" lon="2.06373">
        <ele>83.24</ele>
        <time>2012-11-25T13:57:31.975Z</time>
      </trkpt>
      <trkpt lat="48.70118" lon="2.0636">
        <ele>82.664</ele>
        <time>2012-11-25T13:57:41.318Z</time>
      </trkpt>
      <trkpt lat="48.70112" lon="2.06348">
        <ele>81.983</ele>
        <time>2012-11-25T13:57:49.912Z</time>
      </trkpt>
      <trkpt lat="48.70106" lon="2.06336">
        <ele>81.633</ele>
        <time>2012-11-25T13:57:57.092Z</time>
      </trkpt>
      <trkpt lat="48.70101" lon="2.06325">
        <ele>81.566</ele>
        <time>2012-11-25T13:58:04.529Z</time>
      </trkpt>
      <trkpt lat="48.70096" lon="2.06313">
        <ele>81.613</ele>
        <time>2012-11-25T13:58:13.465Z</time>
      </trkpt>
      <trkpt lat="48.70089" lon="2.06302">
        <ele>81.628</ele>
        <time>2012-11-25T13:58:23.138Z</time>
      </trkpt>
      <trkpt lat="48.70082" lon="2.06292">
        <ele>81.551</ele>
        <time>2012-11-25T13:58:32.445Z</time>
      </trkpt>
      <trkpt lat="48.70075" lon="2.0628">
        <ele>81.447</ele>
        <time>2012-11-25T13:58:41.645Z</time>
      </trkpt>
      <trkpt lat="48.7007" lon="2.06268">
        <ele>81.353</ele>
        <time>2012-11-25T13:58:50.067Z</time>
      </trkpt>
      <trkpt lat="48.70064" lon="2.06257">
        <ele>81.254</ele>
        <time>2012-11-25T13:58:59.221Z</time>
      </trkpt>
      <trkpt lat="48.70057" lon="2.06245">
        <ele>80.846</ele>
        <time>2012-11-25T13:59:08.683Z</time>
      </trkpt>
      <trkpt lat="48.7005" lon="2.06236">
        <ele>79.882</ele>
        <time>2012-11-25T13:59:16.708Z</time>
      </trkpt>
      <trkpt lat="48.70043" lon="2.06226">
        <ele>78.803</ele>
        <time>2012-11-25T13:59:24.849Z</time>
      </trkpt>
      <trkpt lat="48.70035" lon="2.06216">
        <ele>78.055</ele>
        <time>2012-11-25T13:59:34.100Z</time>
      </trkpt>
      <trkpt lat="48.70028" lon="2.06206">
        <ele>77.551</ele>
        <time>2012-11-25T13:59:44.685Z</time>
      </trkpt>
      <trkpt lat="48.70028" lon="2.06206">
        <ele>77.279</ele>
        <time>2012-11-25T13:59:45.671Z</time>
      </trkpt>
      <trkpt lat="48.70028" lon="2.06206">
        <ele>77.271</ele>
        <time>2012-11-25T14:00:04.674Z</time>
      </trkpt>
      <trkpt lat="48.70028" lon="2.06206">
        <ele>77.319</ele>
        <time>2012-11-25T14:01:18.679Z</time>
      </trkpt>
      <trkpt lat="48.70028" lon="2.06206">
        <ele>77.266</ele>
        <time>2012-11-25T14:01:37.648Z</time>
      </trkpt>
      <trkpt lat="48.70019" lon="2.06194">
        <ele>77.235</ele>
        <time>2012-11-25T14:01:47.675Z</time>
      </trkpt>
      <trkpt lat="48.70019" lon="2.06194">
        <ele>77.227</ele>
        <time>2012-11-25T14:01:59.676Z</time>
      </trkpt>
      <trkpt lat="48.70019" lon="2.06194">
        <ele>77.223</ele>
        <time>2012-11-25T14:12:28.677Z</time>
      </trkpt>
      <trkpt lat="48.70012" lon="2.06184">
        <ele>77.201</ele>
        <time>2012-11-25T14:12:48.490Z</time>
      </trkpt>
      <trkpt lat="48.70006" lon="2.06174">
        <ele>77.209</ele>
        <time>2012-11-25T14:12:57.392Z</time>
      </trkpt>
      <trkpt lat="48.69998" lon="2.06164">
        <ele>77.766</ele>
        <time>2012-11-25T14:13:05.268Z</time>
      </trkpt>
      <trkpt lat="48.6999" lon="2.06157">
        <ele>79.19</ele>
        <time>2012-11-25T14:13:13.473Z</time>
      </trkpt>
      <trkpt lat="48.69981" lon="2.06147">
        <ele>80.892</ele>
        <time>2012-11-25T14:13:22.574Z</time>
      </trkpt>
      <trkpt lat="48.69974" lon="2.06138">
        <ele>82.743</ele>
        <time>2012-11-25T14:13:29.664Z</time>
      </trkpt>
      <trkpt lat="48.69964" lon="2.06132">
        <ele>84.888</ele>
        <time>2012-11-25T14:13:37.682Z</time>
      </trkpt>
      <trkpt lat="48.69957" lon="2.06122">
        <ele>86.552</ele>
        <time>2012-11-25T14:13:44.782Z</time>
      </trkpt>
      <trkpt lat="48.69948" lon="2.06116">
        <ele>87.43</ele>
        <time>2012-11-25T14:13:51.509Z</time>
      </trkpt>
      <trkpt lat="48.6994" lon="2.06108">
        <ele>87.996</ele>
        <time>2012-11-25T14:13:58.702Z</time>
      </trkpt>
      <trkpt lat="48.69933" lon="2.06098">
        <ele>88.376</ele>
        <time>2012-11-25T14:14:06.677Z</time>
      </trkpt>
      <trkpt lat="48.69933" lon="2.06098">
        <ele>88.5</ele>
        <time>2012-11-25T14:14:16.673Z</time>
      </trkpt>
      <trkpt lat="48.69933" lon="2.06098">
        <ele>88.486</ele>
        <time>2012-11-25T14:14:16.773Z</time>
      </trkpt>
      <trkpt lat="48.69926" lon="2.06087">
        <ele>88.438</ele>
        <time>2012-11-25T14:14:35.043Z</time>
      </trkpt>
      <trkpt lat="48.69918" lon="2.06081">
        <ele>88.404</ele>
        <time>2012-11-25T14:14:43.561Z</time>
      </trkpt>
      <trkpt lat="48.69909" lon="2.06075">
        <ele>88.392</ele>
        <time>2012-11-25T14:14:51.060Z</time>
      </trkpt>
      <trkpt lat="48.69901" lon="2.06064">
        <ele>88.391</ele>
        <time>2012-11-25T14:14:58.523Z</time>
      </trkpt>
      <trkpt lat="48.69893" lon="2.06057">
        <ele>88.378</ele>
        <time>2012-11-25T14:15:06.108Z</time>
      </trkpt>
      <trkpt lat="48.69884" lon="2.06051">
        <ele>88.353</ele>
        <time>2012-11-25T14:15:14.034Z</time>
      </trkpt>
      <trkpt lat="48.69876" lon="2.06043">
        <ele>88.555</ele>
        <time>2012-11-25T14:15:20.813Z</time>
      </trkpt>
      <trkpt lat="48.69867" lon="2.06035">
        <ele>89.244</ele>
        <time>2012-11-25T14:15:27.022Z</time>
      </trkpt>
      <trkpt lat="48.69858" lon="2.06028">
        <ele>90.164</ele>
        <time>2012-11-25T14:15:33.761Z</time>
      </trkpt>
      <trkpt lat="48.69849" lon="2.06023">
        <ele>90.701</ele>
        <time>2012-11-25T14:15:40.662Z</time>
      </trkpt>
      <trkpt lat="48.6984" lon="2.06018">
        <ele>90.807</ele>
        <time>2012-11-25T14:15:49.813Z</time>
      </trkpt>
      <trkpt lat="48.69831" lon="2.06013">
        <ele>91.083</ele>
        <time>2012-11-25T14:15:59.575Z</time>
      </trkpt>
      <trkpt lat="48.69822" lon="2.06007">
        <ele>91.734</ele>
        <time>2012-11-25T14:16:08.430Z</time>
      </trkpt>
      <trkpt lat="48.69814" lon="2.05999">
        <ele>92.322</ele>
        <time>2012-11-25T14:16:16.215Z</time>
      </trkpt>
      <trkpt lat="48.69806" lon="2.05994">
        <ele>92.288</ele>
        <time>2012-11-25T14:16:24.227Z</time>
      </trkpt>
      <trkpt lat="48.69797" lon="2.05988">
        <ele>91.851</ele>
        <time>2012-11-25T14:16:32.503Z</time>
      </trkpt>
      <trkpt lat="48.69788" lon="2.05983">
        <ele>91.789</ele>
        <time>2012-11-25T14:16:39.920Z</time>
      </trkpt>
      <trkpt lat="48.69779" lon="2.05978">
        <ele>92.14</ele>
        <time>2012-11-25T14:16:47.493Z</time>
      </trkpt>
      <trkpt lat="48.69771" lon="2.05973">
        <ele>92.107</ele>
        <time>2012-11-25T14:16:56.691Z</time>
      </trkpt>
      <trkpt lat="48.69762" lon="2.05968">
        <ele>91.453</ele>
        <time>2012-11-25T14:17:05.192Z</time>
      </trkpt>
      <trkpt lat="48.69753" lon="2.05964">
        <ele>90.69</ele>
        <time>2012-11-25T14:17:12.222Z</time>
      </trkpt>
      <trkpt lat="48.69744" lon="2.05959">
        <ele>89.962</ele>
        <time>2012-11-25T14:17:19.784Z</time>
      </trkpt>
      <trkpt lat="48.69734" lon="2.05955">
        <ele>88.951</ele>
        <time>2012-11-25T14:17:28.191Z</time>
      </trkpt>
      <trkpt lat="48.69724" lon="2.05951">
        <ele>87.403</ele>
        <time>2012-11-25T14:17:36.799Z</time>
      </trkpt>
      <trkpt lat="48.69715" lon="2.05947">
        <ele>85.462</ele>
        <time>2012-11-25T14:17:45.011Z</time>
      </trkpt>
      <trkpt lat="48.69704" lon="2.05945">
        <ele>83.905</ele>
        <time>2012-11-25T14:17:54.971Z</time>
      </trkpt>
      <trkpt lat="48.69694" lon="2.05943">
        <ele>83.288</ele>
        <time>2012-11-25T14:18:02.944Z</time>
      </trkpt>
      <trkpt lat="48.69684" lon="2.05942">
        <ele>83.611</ele>
        <time>2012-11-25T14:18:10.474Z</time>
      </trkpt>
      <trkpt lat="48.69675" lon="2.0594">
        <ele>84.977</ele>
        <time>2012-11-25T14:18:17.397Z</time>
      </trkpt>
      <trkpt lat="48.69665" lon="2.05937">
        <ele>87.083</ele>
        <time>2012-11-25T14:18:25.132Z</time>
      </trkpt>
      <trkpt lat="48.69655" lon="2.05934">
        <ele>89.185</ele>
        <time>2012-11-25T14:18:33.669Z</time>
      </trkpt>
      <trkpt lat="48.69646" lon="2.05929">
        <ele>90.701</ele>
        <time>2012-11-25T14:18:43.383Z</time>
      </trkpt>
      <trkpt lat="48.69636" lon="2.05928">
        <ele>91.442</ele>
        <time>2012-11-25T14:18:53.572Z</time>
      </trkpt>
      <trkpt lat="48.69627" lon="2.05924">
        <ele>91.605</ele>
        <time>2012-11-25T14:19:02.994Z</time>
      </trkpt>
      <trkpt lat="48.69618" lon="2.05919">
        <ele>91.516</ele>
        <time>2012-11-25T14:19:11.253Z</time>
      </trkpt>
      <trkpt lat="48.69609" lon="2.05916">
        <ele>91.197</ele>
        <time>2012-11-25T14:19:19.157Z</time>
      </trkpt>
      <trkpt lat="48.696" lon="2.05912">
        <ele>90.475</ele>
        <time>2012-11-25T14:19:25.801Z</time>
      </trkpt>
      <trkpt lat="48.69591" lon="2.05911">
        <ele>89.582</ele>
        <time>2012-11-25T14:19:31.018Z</time>
      </trkpt>
      <trkpt lat="48.69581" lon="2.05911">
        <ele>88.989</ele>
        <time>2012-11-25T14:19:36.385Z</time>
      </trkpt>
      <trkpt lat="48.69572" lon="2.05909">
        <ele>88.798</ele>
        <time>2012-11-25T14:19:42.143Z</time>
      </trkpt>
      <trkpt lat="48.69561" lon="2.05906">
        <ele>89.318</ele>
        <time>2012-11-25T14:19:50.890Z</time>
      </trkpt>
      <trkpt lat="48.69551" lon="2.05906">
        <ele>91.058</ele>
        <time>2012-11-25T14:19:59.082Z</time>
      </trkpt>
      <trkpt lat="48.69542" lon="2.05904">
        <ele>93.619</ele>
        <time>2012-11-25T14:20:07.051Z</time>
      </trkpt>
      <trkpt lat="48.69532" lon="2.05904">
        <ele>95.918</ele>
        <time>2012-11-25T14:20:16.380Z</time>
      </trkpt>
      <trkpt lat="48.69523" lon="2.05907">
        <ele>97.322</ele>
        <time>2012-11-25T14:20:24.281Z</time>
      </trkpt>
      <trkpt lat="48.69511" lon="2.05907">
        <ele>98.058</ele>
        <time>2012-11-25T14:20:32.160Z</time>
      </trkpt>
      <trkpt lat="48.69502" lon="2.05913">
        <ele>98.666</ele>
        <time>2012-11-25T14:20:39.560Z</time>
      </trkpt>
      <trkpt lat="48.69492" lon="2.05916">
        <ele>99.35</ele>
        <time>2012-11-25T14:20:49.270Z</time>
      </trkpt>
      <trkpt lat="48.69483" lon="2.05917">
        <ele>99.857</ele>
        <time>2012-11-25T14:20:58.188Z</time>
      </trkpt>
      <trkpt lat="48.69475" lon="2.05925">
        <ele>99.93</ele>
        <time>2012-11-25T14:21:05.835Z</time>
      </trkpt>
      <trkpt lat="48.69465" lon="2.05929">
        <ele>99.7</ele>
        <time>2012-11-25T14:21:14.239Z</time>
      </trkpt>
      <trkpt lat="48.69456" lon="2.05929">
        <ele>99.741</ele>
        <time>2012-11-25T14:21:23.627Z</time>
      </trkpt>
      <trkpt lat="48.69447" lon="2.05932">
        <ele>100.271</ele>
        <time>2012-11-25T14:21:32.496Z</time>
      </trkpt>
      <trkpt lat="48.69438" lon="2.05938">
        <ele>100.892</ele>
        <time>2012-11-25T14:21:41.318Z</time>
      </trkpt>
      <trkpt lat="48.6943" lon="2.05944">
        <ele>100.974</ele>
        <time>2012-11-25T14:21:51.023Z</time>
      </trkpt>
      <trkpt lat="48.69421" lon="2.05949">
        <ele>100.633</ele>
        <time>2012-11-25T14:21:59.371Z</time>
      </trkpt>
      <trkpt lat="48.69413" lon="2.05957">
        <ele>100.506</ele>
        <time>2012-11-25T14:22:07.951Z</time>
      </trkpt>
      <trkpt lat="48.69404" lon="2.05961">
        <ele>100.716</ele>
        <time>2012-11-25T14:22:17.041Z</time>
      </trkpt>
      <trkpt lat="48.69394" lon="2.05965">
        <ele>100.726</ele>
        <time>2012-11-25T14:22:26.762Z</time>
      </trkpt>
      <trkpt lat="48.69385" lon="2.05968">
        <ele>100.516</ele>
        <time>2012-11-25T14:22:37.818Z</time>
      </trkpt>
      <trkpt lat="48.69375" lon="2.05975">
        <ele>100.648</ele>
        <time>2012-11-25T14:22:47.846Z</time>
      </trkpt>
      <trkpt lat="48.69367" lon="2.0598">
        <ele>101.319</ele>
        <time>2012-11-25T14:22:55.819Z</time>
      </trkpt>
      <trkpt lat="48.69362" lon="2.05992">
        <ele>102.067</ele>
        <time>2012-11-25T14:23:03.786Z</time>
      </trkpt>
      <trkpt lat="48.69355" lon="2.06001">
        <ele>102.493</ele>
        <time>2012-11-25T14:23:12.008Z</time>
      </trkpt>
      <trkpt lat="48.69347" lon="2.06008">
        <ele>102.505</ele>
        <time>2012-11-25T14:23:21.044Z</time>
      </trkpt>
      <trkpt lat="48.69337" lon="2.0601">
        <ele>102.322</ele>
        <time>2012-11-25T14:23:27.023Z</time>
      </trkpt>
      <trkpt lat="48.69325" lon="2.06015">
        <ele>102.342</ele>
        <time>2012-11-25T14:23:33.434Z</time>
      </trkpt>
      <trkpt lat="48.69315" lon="2.06018">
        <ele>102.677</ele>
        <time>2012-11-25T14:23:38.475Z</time>
      </trkpt>
      <trkpt lat="48.69306" lon="2.06021">
        <ele>103.829</ele>
        <time>2012-11-25T14:23:46.083Z</time>
      </trkpt>
      <trkpt lat="48.69297" lon="2.06025">
        <ele>106.067</ele>
        <time>2012-11-25T14:23:54.650Z</time>
      </trkpt>
      <trkpt lat="48.69287" lon="2.06028">
        <ele>108.213</ele>
        <time>2012-11-25T14:24:02.983Z</time>
      </trkpt>
      <trkpt lat="48.6928" lon="2.06037">
        <ele>109.19</ele>
        <time>2012-11-25T14:24:12.349Z</time>
      </trkpt>
      <trkpt lat="48.69269" lon="2.06045">
        <ele>109.555</ele>
        <time>2012-11-25T14:24:21.541Z</time>
      </trkpt>
      <trkpt lat="48.69259" lon="2.06049">
        <ele>110.002</ele>
        <time>2012-11-25T14:24:29.120Z</time>
      </trkpt>
      <trkpt lat="48.69248" lon="2.06054">
        <ele>110.476</ele>
        <time>2012-11-25T14:24:39.427Z</time>
      </trkpt>
      <trkpt lat="48.69239" lon="2.06054">
        <ele>111.213</ele>
        <time>2012-11-25T14:24:47.241Z</time>
      </trkpt>
      <trkpt lat="48.69229" lon="2.06054">
        <ele>112.575</ele>
        <time>2012-11-25T14:24:54.867Z</time>
      </trkpt>
      <trkpt lat="48.69219" lon="2.06057">
        <ele>113.898</ele>
        <time>2012-11-25T14:25:03.991Z</time>
      </trkpt>
      <trkpt lat="48.69211" lon="2.06065">
        <ele>114.504</ele>
        <time>2012-11-25T14:25:12.969Z</time>
      </trkpt>
      <trkpt lat="48.69203" lon="2.06072">
        <ele>114.583</ele>
        <time>2012-11-25T14:25:21.975Z</time>
      </trkpt>
      <trkpt lat="48.69195" lon="2.06081">
        <ele>114.136</ele>
        <time>2012-11-25T14:25:30.667Z</time>
      </trkpt>
      <trkpt lat="48.69186" lon="2.06087">
        <ele>113.074</ele>
        <time>2012-11-25T14:25:38.825Z</time>
      </trkpt>
      <trkpt lat="48.69178" lon="2.06093">
        <ele>111.914</ele>
        <time>2012-11-25T14:25:47.152Z</time>
      </trkpt>
      <trkpt lat="48.69169" lon="2.06096">
        <ele>111.345</ele>
        <time>2012-11-25T14:25:55.713Z</time>
      </trkpt>
      <trkpt lat="48.6916" lon="2.06097">
        <ele>111.401</ele>
        <time>2012-11-25T14:26:05.050Z</time>
      </trkpt>
      <trkpt lat="48.69151" lon="2.06096">
        <ele>111.606</ele>
        <time>2012-11-25T14:26:13.740Z</time>
      </trkpt>
      <trkpt lat="48.69141" lon="2.06099">
        <ele>111.411</ele>
        <time>2012-11-25T14:26:21.762Z</time>
      </trkpt>
      <trkpt lat="48.69132" lon="2.06103">
        <ele>110.499</ele>
        <time>2012-11-25T14:26:28.228Z</time>
      </trkpt>
      <trkpt lat="48.69123" lon="2.06102">
        <ele>108.747</ele>
        <time>2012-11-25T14:26:33.677Z</time>
      </trkpt>
      <trkpt lat="48.69113" lon="2.06104">
        <ele>106.65</ele>
        <time>2012-11-25T14:26:40.060Z</time>
      </trkpt>
      <trkpt lat="48.69103" lon="2.06103">
        <ele>105.17</ele>
        <time>2012-11-25T14:26:48.630Z</time>
      </trkpt>
      <trkpt lat="48.69093" lon="2.06102">
        <ele>104.654</ele>
        <time>2012-11-25T14:26:57.316Z</time>
      </trkpt>
      <trkpt lat="48.69084" lon="2.06105">
        <ele>106.164</ele>
        <time>2012-11-25T14:27:06.481Z</time>
      </trkpt>
      <trkpt lat="48.69075" lon="2.06103">
        <ele>110.182</ele>
        <time>2012-11-25T14:27:15.427Z</time>
      </trkpt>
      <trkpt lat="48.69065" lon="2.06103">
        <ele>114.681</ele>
        <time>2012-11-25T14:27:24.950Z</time>
      </trkpt>
      <trkpt lat="48.69056" lon="2.06105">
        <ele>117.718</ele>
        <time>2012-11-25T14:27:33.193Z</time>
      </trkpt>
      <trkpt lat="48.69047" lon="2.06109">
        <ele>119.152</ele>
        <time>2012-11-25T14:27:42.166Z</time>
      </trkpt>
      <trkpt lat="48.69035" lon="2.06114">
        <ele>119.311</ele>
        <time>2012-11-25T14:27:51.319Z</time>
      </trkpt>
      <trkpt lat="48.69026" lon="2.06114">
        <ele>118.924</ele>
        <time>2012-11-25T14:27:56.162Z</time>
      </trkpt>
      <trkpt lat="48.69016" lon="2.06108">
        <ele>118.496</ele>
        <time>2012-11-25T14:28:02.106Z</time>
      </trkpt>
      <trkpt lat="48.69007" lon="2.06109">
        <ele>118.254</ele>
        <time>2012-11-25T14:28:08.841Z</time>
      </trkpt>
      <trkpt lat="48.68998" lon="2.06109">
        <ele>118.188</ele>
        <time>2012-11-25T14:28:16.295Z</time>
      </trkpt>
      <trkpt lat="48.68988" lon="2.06107">
        <ele>118.212</ele>
        <time>2012-11-25T14:28:24.705Z</time>
      </trkpt>
      <trkpt lat="48.68979" lon="2.06107">
        <ele>118.34</ele>
        <time>2012-11-25T14:28:33.690Z</time>
      </trkpt>
      <trkpt lat="48.68969" lon="2.06111">
        <ele>118.796</ele>
        <time>2012-11-25T14:28:44.004Z</time>
      </trkpt>
      <trkpt lat="48.6896" lon="2.06111">
        <ele>119.406</ele>
        <time>2012-11-25T14:28:51.830Z</time>
      </trkpt>
      <trkpt lat="48.68951" lon="2.06112">
        <ele>119.652</ele>
        <time>2012-11-25T14:29:00.277Z</time>
      </trkpt>
      <trkpt lat="48.68942" lon="2.0611">
        <ele>119.442</ele>
        <time>2012-11-25T14:29:10.262Z</time>
      </trkpt>
      <trkpt lat="48.68933" lon="2.06105">
        <ele>119.108</ele>
        <time>2012-11-25T14:29:21.830Z</time>
      </trkpt>
      <trkpt lat="48.68922" lon="2.06106">
        <ele>118.396</ele>
        <time>2012-11-25T14:29:34.206Z</time>
      </trkpt>
      <trkpt lat="48.68913" lon="2.06109">
        <ele>117.097</ele>
        <time>2012-11-25T14:29:42.587Z</time>
      </trkpt>
      <trkpt lat="48.68904" lon="2.0611">
        <ele>115.859</ele>
        <time>2012-11-25T14:29:50.665Z</time>
      </trkpt>
      <trkpt lat="48.68895" lon="2.06114">
        <ele>115.205</ele>
        <time>2012-11-25T14:29:59.231Z</time>
      </trkpt>
      <trkpt lat="48.68886" lon="2.06117">
        <ele>114.887</ele>
        <time>2012-11-25T14:30:07.177Z</time>
      </trkpt>
      <trkpt lat="48.68877" lon="2.0612">
        <ele>114.73</ele>
        <time>2012-11-25T14:30:15.575Z</time>
      </trkpt>
      <trkpt lat="48.68867" lon="2.06121">
        <ele>114.898</ele>
        <time>2012-11-25T14:30:25.012Z</time>
      </trkpt>
      <trkpt lat="48.68857" lon="2.06124">
        <ele>115.45</ele>
        <time>2012-11-25T14:30:32.714Z</time>
      </trkpt>
      <trkpt lat="48.68848" lon="2.06125">
        <ele>116.024</ele>
        <time>2012-11-25T14:30:40.697Z</time>
      </trkpt>
      <trkpt lat="48.68839" lon="2.06126">
        <ele>116.082</ele>
        <time>2012-11-25T14:30:49.897Z</time>
      </trkpt>
      <trkpt lat="48.6883" lon="2.0613">
        <ele>115.566</ele>
        <time>2012-11-25T14:30:58.458Z</time>
      </trkpt>
      <trkpt lat="48.6882" lon="2.06133">
        <ele>114.948</ele>
        <time>2012-11-25T14:31:07.677Z</time>
      </trkpt>
      <trkpt lat="48.6882" lon="2.06133">
        <ele>114.631</ele>
        <time>2012-11-25T14:31:19.676Z</time>
      </trkpt>
      <trkpt lat="48.6882" lon="2.06133">
        <ele>114.543</ele>
        <time>2012-11-25T14:31:19.776Z</time>
      </trkpt>
      <trkpt lat="48.68807" lon="2.06129">
        <ele>114.216</ele>
        <time>2012-11-25T14:31:47.676Z</time>
      </trkpt>
      <trkpt lat="48.68807" lon="2.06129">
        <ele>113.407</ele>
        <time>2012-11-25T14:31:56.678Z</time>
      </trkpt>
      <trkpt lat="48.68807" lon="2.06129">
        <ele>112.723</ele>
        <time>2012-11-25T14:31:56.778Z</time>
      </trkpt>
      <trkpt lat="48.68806" lon="2.06144">
        <ele>112.8</ele>
        <time>2012-11-25T14:32:30.913Z</time>
      </trkpt>
      <trkpt lat="48.68797" lon="2.06152">
        <ele>113.452</ele>
        <time>2012-11-25T14:32:43.518Z</time>
      </trkpt>
      <trkpt lat="48.68788" lon="2.06157">
        <ele>114.138</ele>
        <time>2012-11-25T14:32:50.228Z</time>
      </trkpt>
      <trkpt lat="48.68779" lon="2.06156">
        <ele>115.403</ele>
        <time>2012-11-25T14:32:56.361Z</time>
      </trkpt>
      <trkpt lat="48.68769" lon="2.06161">
        <ele>117.785</ele>
        <time>2012-11-25T14:33:04.896Z</time>
      </trkpt>
      <trkpt lat="48.6876" lon="2.06161">
        <ele>120.092</ele>
        <time>2012-11-25T14:33:12.025Z</time>
      </trkpt>
      <trkpt lat="48.68751" lon="2.06161">
        <ele>121.149</ele>
        <time>2012-11-25T14:33:17.664Z</time>
      </trkpt>
      <trkpt lat="48.68741" lon="2.06164">
        <ele>121.097</ele>
        <time>2012-11-25T14:33:24.043Z</time>
      </trkpt>
      <trkpt lat="48.68731" lon="2.06166">
        <ele>120.183</ele>
        <time>2012-11-25T14:33:30.666Z</time>
      </trkpt>
      <trkpt lat="48.68731" lon="2.06166">
        <ele>118.905</ele>
        <time>2012-11-25T14:33:32.669Z</time>
      </trkpt>
      <trkpt lat="48.68731" lon="2.06166">
        <ele>117.981</ele>
        <time>2012-11-25T14:33:32.769Z</time>
      </trkpt>
      <trkpt lat="48.68719" lon="2.06167">
        <ele>117.993</ele>
        <time>2012-11-25T14:33:44.748Z</time>
      </trkpt>
      <trkpt lat="48.68709" lon="2.06171">
        <ele>117.474</ele>
        <time>2012-11-25T14:33:51.869Z</time>
      </trkpt>
      <trkpt lat="48.687" lon="2.06177">
        <ele>116.088</ele>
        <time>2012-11-25T14:33:58.650Z</time>
      </trkpt>
      <trkpt lat="48.68691" lon="2.0618">
        <ele>115.238</ele>
        <time>2012-11-25T14:34:05.752Z</time>
      </trkpt>
      <trkpt lat="48.68681" lon="2.0618">
        <ele>115.074</ele>
        <time>2012-11-25T14:34:14.025Z</time>
      </trkpt>
      <trkpt lat="48.68671" lon="2.06183">
        <ele>114.661</ele>
        <time>2012-11-25T14:34:22.373Z</time>
      </trkpt>
      <trkpt lat="48.68662" lon="2.06188">
        <ele>114.021</ele>
        <time>2012-11-25T14:34:30.813Z</time>
      </trkpt>
      <trkpt lat="48.68653" lon="2.0619">
        <ele>113.489</ele>
        <time>2012-11-25T14:34:38.740Z</time>
      </trkpt>
      <trkpt lat="48.68644" lon="2.06193">
        <ele>113.18</ele>
        <time>2012-11-25T14:34:45.896Z</time>
      </trkpt>
      <trkpt lat="48.68634" lon="2.06196">
        <ele>112.667</ele>
        <time>2012-11-25T14:34:53.017Z</time>
      </trkpt>
      <trkpt lat="48.68625" lon="2.06197">
        <ele>111.406</ele>
        <time>2012-11-25T14:34:59.741Z</time>
      </trkpt>
      <trkpt lat="48.68613" lon="2.0619">
        <ele>109.872</ele>
        <time>2012-11-25T14:35:08.791Z</time>
      </trkpt>
      <trkpt lat="48.68605" lon="2.06195">
        <ele>108.915</ele>
        <time>2012-11-25T14:35:15.681Z</time>
      </trkpt>
      <trkpt lat="48.68605" lon="2.06195">
        <ele>108.615</ele>
        <time>2012-11-25T14:35:24.679Z</time>
      </trkpt>
      <trkpt lat="48.68605" lon="2.06195">
        <ele>108.635</ele>
        <time>2012-11-25T14:36:13.139Z</time>
      </trkpt>
      <trkpt lat="48.68589" lon="2.06194">
        <ele>108.723</ele>
        <time>2012-11-25T14:38:54.355Z</time>
      </trkpt>
      <trkpt lat="48.68592" lon="2.06207">
        <ele>108.797</ele>
        <time>2012-11-25T14:39:04.241Z</time>
      </trkpt>
      <trkpt lat="48.68589" lon="2.0622">
        <ele>109.914</ele>
        <time>2012-11-25T14:39:11.987Z</time>
      </trkpt>
      <trkpt lat="48.68581" lon="2.06231">
        <ele>113.644</ele>
        <time>2012-11-25T14:39:20.782Z</time>
      </trkpt>
      <trkpt lat="48.68577" lon="2.06243">
        <ele>119.201</ele>
        <time>2012-11-25T14:39:30.107Z</time>
      </trkpt>
      <trkpt lat="48.68579" lon="2.06257">
        <ele>124.087</ele>
        <time>2012-11-25T14:39:42.114Z</time>
      </trkpt>
      <trkpt lat="48.68581" lon="2.06276">
        <ele>127.496</ele>
        <time>2012-11-25T14:39:59.170Z</time>
      </trkpt>
      <trkpt lat="48.68591" lon="2.06289">
        <ele>129.82</ele>
        <time>2012-11-25T14:40:22.694Z</time>
      </trkpt>
      <trkpt lat="48.68594" lon="2.06305">
        <ele>131.092</ele>
        <time>2012-11-25T14:40:33.933Z</time>
      </trkpt>
      <trkpt lat="48.68598" lon="2.0632">
        <ele>131.463</ele>
        <time>2012-11-25T14:40:42.689Z</time>
      </trkpt>
      <trkpt lat="48.68598" lon="2.0632">
        <ele>131.439</ele>
        <time>2012-11-25T14:41:01.681Z</time>
      </trkpt>
      <trkpt lat="48.68598" lon="2.0632">
        <ele>131.347</ele>
        <time>2012-11-25T14:41:01.781Z</time>
      </trkpt>
      <trkpt lat="48.68604" lon="2.06341">
        <ele>131.299</ele>
        <time>2012-11-25T14:41:40.024Z</time>
      </trkpt>
      <trkpt lat="48.68595" lon="2.0635">
        <ele>130.724</ele>
        <time>2012-11-25T14:41:51.762Z</time>
      </trkpt>
      <trkpt lat="48.68583" lon="2.06349">
        <ele>128.719</ele>
        <time>2012-11-25T14:41:59.966Z</time>
      </trkpt>
      <trkpt lat="48.68573" lon="2.06347">
        <ele>124.78</ele>
        <time>2012-11-25T14:42:06.624Z</time>
      </trkpt>
      <trkpt lat="48.68563" lon="2.06343">
        <ele>119.737</ele>
        <time>2012-11-25T14:42:13.551Z</time>
      </trkpt>
      <trkpt lat="48.6855" lon="2.06344">
        <ele>115.412</ele>
        <time>2012-11-25T14:42:21.502Z</time>
      </trkpt>
      <trkpt lat="48.68541" lon="2.06333">
        <ele>112.621</ele>
        <time>2012-11-25T14:42:30.872Z</time>
      </trkpt>
      <trkpt lat="48.68534" lon="2.06325">
        <ele>110.922</ele>
        <time>2012-11-25T14:42:39.143Z</time>
      </trkpt>
      <trkpt lat="48.68522" lon="2.06315">
        <ele>110.102</ele>
        <time>2012-11-25T14:42:52.010Z</time>
      </trkpt>
      <trkpt lat="48.68513" lon="2.06312">
        <ele>109.613</ele>
        <time>2012-11-25T14:42:59.157Z</time>
      </trkpt>
      <trkpt lat="48.68501" lon="2.06305">
        <ele>109.141</ele>
        <time>2012-11-25T14:43:07.673Z</time>
      </trkpt>
      <trkpt lat="48.68501" lon="2.06305">
        <ele>109.004</ele>
        <time>2012-11-25T14:43:21.671Z</time>
      </trkpt>
      <trkpt lat="48.68501" lon="2.06305">
        <ele>109.075</ele>
        <time>2012-11-25T14:43:21.771Z</time>
      </trkpt>
      <trkpt lat="48.68491" lon="2.06299">
        <ele>109.029</ele>
        <time>2012-11-25T14:44:05.798Z</time>
      </trkpt>
      <trkpt lat="48.68483" lon="2.06293">
        <ele>108.99</ele>
        <time>2012-11-25T14:44:13.427Z</time>
      </trkpt>
      <trkpt lat="48.68474" lon="2.06285">
        <ele>109.012</ele>
        <time>2012-11-25T14:44:20.385Z</time>
      </trkpt>
      <trkpt lat="48.68465" lon="2.06281">
        <ele>109.075</ele>
        <time>2012-11-25T14:44:27.519Z</time>
      </trkpt>
      <trkpt lat="48.68455" lon="2.06275">
        <ele>109.117</ele>
        <time>2012-11-25T14:44:35.124Z</time>
      </trkpt>
      <trkpt lat="48.68446" lon="2.06271">
        <ele>109.113</ele>
        <time>2012-11-25T14:44:42.098Z</time>
      </trkpt>
      <trkpt lat="48.68438" lon="2.06263">
        <ele>109.44</ele>
        <time>2012-11-25T14:44:49.022Z</time>
      </trkpt>
      <trkpt lat="48.6843" lon="2.06254">
        <ele>110.232</ele>
        <time>2012-11-25T14:44:57.088Z</time>
      </trkpt>
      <trkpt lat="48.68421" lon="2.06248">
        <ele>110.671</ele>
        <time>2012-11-25T14:45:04.484Z</time>
      </trkpt>
      <trkpt lat="48.68412" lon="2.06243">
        <ele>110.175</ele>
        <time>2012-11-25T14:45:11.651Z</time>
      </trkpt>
      <trkpt lat="48.68402" lon="2.06241">
        <ele>109.308</ele>
        <time>2012-11-25T14:45:19.391Z</time>
      </trkpt>
      <trkpt lat="48.68394" lon="2.06245">
        <ele>108.995</ele>
        <time>2012-11-25T14:45:27.484Z</time>
      </trkpt>
      <trkpt lat="48.68385" lon="2.06249">
        <ele>109.241</ele>
        <time>2012-11-25T14:45:35.301Z</time>
      </trkpt>
      <trkpt lat="48.68376" lon="2.06251">
        <ele>108.723</ele>
        <time>2012-11-25T14:45:42.303Z</time>
      </trkpt>
      <trkpt lat="48.68368" lon="2.06259">
        <ele>106.802</ele>
        <time>2012-11-25T14:45:49.146Z</time>
      </trkpt>
      <trkpt lat="48.68359" lon="2.06263">
        <ele>104.701</ele>
        <time>2012-11-25T14:45:56.676Z</time>
      </trkpt>
      <trkpt lat="48.6835" lon="2.06268">
        <ele>103.544</ele>
        <time>2012-11-25T14:46:04.639Z</time>
      </trkpt>
      <trkpt lat="48.68341" lon="2.06268">
        <ele>103.091</ele>
        <time>2012-11-25T14:46:12.674Z</time>
      </trkpt>
      <trkpt lat="48.68341" lon="2.06268">
        <ele>102.757</ele>
        <time>2012-11-25T14:46:20.673Z</time>
      </trkpt>
      <trkpt lat="48.68341" lon="2.06268">
        <ele>102.46</ele>
        <time>2012-11-25T14:46:20.773Z</time>
      </trkpt>
      <trkpt lat="48.68331" lon="2.06271">
        <ele>102.176</ele>
        <time>2012-11-25T14:46:44.338Z</time>
      </trkpt>
      <trkpt lat="48.68328" lon="2.06284">
        <ele>101.675</ele>
        <time>2012-11-25T14:46:53.649Z</time>
      </trkpt>
      <trkpt lat="48.68329" lon="2.06298">
        <ele>101.068</ele>
        <time>2012-11-25T14:47:02.018Z</time>
      </trkpt>
      <trkpt lat="48.6833" lon="2.06312">
        <ele>100.368</ele>
        <time>2012-11-25T14:47:10.232Z</time>
      </trkpt>
      <trkpt lat="48.68333" lon="2.06326">
        <ele>99.464</ele>
        <time>2012-11-25T14:47:18.108Z</time>
      </trkpt>
      <trkpt lat="48.68335" lon="2.0634">
        <ele>98.695</ele>
        <time>2012-11-25T14:47:25.755Z</time>
      </trkpt>
      <trkpt lat="48.6834" lon="2.06354">
        <ele>98.381</ele>
        <time>2012-11-25T14:47:34.028Z</time>
      </trkpt>
      <trkpt lat="48.68343" lon="2.06367">
        <ele>98.364</ele>
        <time>2012-11-25T14:47:43.591Z</time>
      </trkpt>
      <trkpt lat="48.6834" lon="2.06381">
        <ele>99.068</ele>
        <time>2012-11-25T14:47:51.977Z</time>
      </trkpt>
      <trkpt lat="48.68336" lon="2.06394">
        <ele>100.872</ele>
        <time>2012-11-25T14:47:59.492Z</time>
      </trkpt>
      <trkpt lat="48.68328" lon="2.06404">
        <ele>102.928</ele>
        <time>2012-11-25T14:48:08.324Z</time>
      </trkpt>
      <trkpt lat="48.6832" lon="2.06411">
        <ele>104.276</ele>
        <time>2012-11-25T14:48:16.420Z</time>
      </trkpt>
      <trkpt lat="48.68312" lon="2.06419">
        <ele>105.084</ele>
        <time>2012-11-25T14:48:25.022Z</time>
      </trkpt>
      <trkpt lat="48.68305" lon="2.0643">
        <ele>105.7</ele>
        <time>2012-11-25T14:48:34.097Z</time>
      </trkpt>
      <trkpt lat="48.68298" lon="2.06439">
        <ele>106.196</ele>
        <time>2012-11-25T14:48:42.499Z</time>
      </trkpt>
      <trkpt lat="48.68291" lon="2.06449">
        <ele>106.565</ele>
        <time>2012-11-25T14:48:51.125Z</time>
      </trkpt>
      <trkpt lat="48.68286" lon="2.0646">
        <ele>106.877</ele>
        <time>2012-11-25T14:48:59.694Z</time>
      </trkpt>
      <trkpt lat="48.6828" lon="2.06472">
        <ele>107.158</ele>
        <time>2012-11-25T14:49:08.214Z</time>
      </trkpt>
      <trkpt lat="48.68279" lon="2.06486">
        <ele>107.363</ele>
        <time>2012-11-25T14:49:17.881Z</time>
      </trkpt>
      <trkpt lat="48.68271" lon="2.06495">
        <ele>107.983</ele>
        <time>2012-11-25T14:49:28.527Z</time>
      </trkpt>
      <trkpt lat="48.68264" lon="2.06503">
        <ele>109.454</ele>
        <time>2012-11-25T14:49:37.744Z</time>
      </trkpt>
      <trkpt lat="48.68256" lon="2.06513">
        <ele>111.16</ele>
        <time>2012-11-25T14:49:46.079Z</time>
      </trkpt>
      <trkpt lat="48.68249" lon="2.06523">
        <ele>112.318</ele>
        <time>2012-11-25T14:49:53.536Z</time>
      </trkpt>
      <trkpt lat="48.68242" lon="2.06531">
        <ele>112.762</ele>
        <time>2012-11-25T14:50:00.881Z</time>
      </trkpt>
      <trkpt lat="48.68236" lon="2.06542">
        <ele>112.665</ele>
        <time>2012-11-25T14:50:09.618Z</time>
      </trkpt>
      <trkpt lat="48.68229" lon="2.06552">
        <ele>112.421</ele>
        <time>2012-11-25T14:50:18.525Z</time>
      </trkpt>
      <trkpt lat="48.68223" lon="2.06563">
        <ele>112.27</ele>
        <time>2012-11-25T14:50:29.514Z</time>
      </trkpt>
      <trkpt lat="48.68227" lon="2.06576">
        <ele>112.252</ele>
        <time>2012-11-25T14:50:41.927Z</time>
      </trkpt>
      <trkpt lat="48.68227" lon="2.0659">
        <ele>112.281</ele>
        <time>2012-11-25T14:50:52.420Z</time>
      </trkpt>
      <trkpt lat="48.68229" lon="2.06605">
        <ele>111.949</ele>
        <time>2012-11-25T14:51:01.236Z</time>
      </trkpt>
      <trkpt lat="48.68236" lon="2.06619">
        <ele>111.099</ele>
        <time>2012-11-25T14:51:09.819Z</time>
      </trkpt>
      <trkpt lat="48.6824" lon="2.06632">
        <ele>110.089</ele>
        <time>2012-11-25T14:51:16.683Z</time>
      </trkpt>
      <trkpt lat="48.68245" lon="2.06646">
        <ele>109.289</ele>
        <time>2012-11-25T14:51:24.245Z</time>
      </trkpt>
      <trkpt lat="48.68243" lon="2.06664">
        <ele>108.843</ele>
        <time>2012-11-25T14:51:32.561Z</time>
      </trkpt>
      <trkpt lat="48.68244" lon="2.06678">
        <ele>108.752</ele>
        <time>2012-11-25T14:51:38.948Z</time>
      </trkpt>
      <trkpt lat="48.68248" lon="2.06691">
        <ele>108.81</ele>
        <time>2012-11-25T14:51:46.170Z</time>
      </trkpt>
      <trkpt lat="48.68252" lon="2.06706">
        <ele>109.14</ele>
        <time>2012-11-25T14:51:54.907Z</time>
      </trkpt>
      <trkpt lat="48.68254" lon="2.0672">
        <ele>109.854</ele>
        <time>2012-11-25T14:52:03.249Z</time>
      </trkpt>
      <trkpt lat="48.68257" lon="2.06734">
        <ele>110.557</ele>
        <time>2012-11-25T14:52:11.167Z</time>
      </trkpt>
      <trkpt lat="48.68263" lon="2.06748">
        <ele>110.964</ele>
        <time>2012-11-25T14:52:21.389Z</time>
      </trkpt>
      <trkpt lat="48.6827" lon="2.0676">
        <ele>111.221</ele>
        <time>2012-11-25T14:52:31.677Z</time>
      </trkpt>
      <trkpt lat="48.68279" lon="2.06768">
        <ele>111.291</ele>
        <time>2012-11-25T14:52:39.650Z</time>
      </trkpt>
      <trkpt lat="48.68286" lon="2.06777">
        <ele>111.104</ele>
        <time>2012-11-25T14:52:47.177Z</time>
      </trkpt>
      <trkpt lat="48.68294" lon="2.06785">
        <ele>110.531</ele>
        <time>2012-11-25T14:52:55.154Z</time>
      </trkpt>
      <trkpt lat="48.68297" lon="2.06798">
        <ele>109.352</ele>
        <time>2012-11-25T14:53:05.694Z</time>
      </trkpt>
      <trkpt lat="48.68292" lon="2.0681">
        <ele>107.34</ele>
        <time>2012-11-25T14:53:16.193Z</time>
      </trkpt>
      <trkpt lat="48.68288" lon="2.06823">
        <ele>104.875</ele>
        <time>2012-11-25T14:53:23.807Z</time>
      </trkpt>
      <trkpt lat="48.68282" lon="2.06836">
        <ele>103.011</ele>
        <time>2012-11-25T14:53:30.789Z</time>
      </trkpt>
      <trkpt lat="48.68275" lon="2.06846">
        <ele>102.266</ele>
        <time>2012-11-25T14:53:37.272Z</time>
      </trkpt>
      <trkpt lat="48.68265" lon="2.06849">
        <ele>102.156</ele>
        <time>2012-11-25T14:53:44.513Z</time>
      </trkpt>
      <trkpt lat="48.68256" lon="2.06851">
        <ele>102.24</ele>
        <time>2012-11-25T14:53:50.916Z</time>
      </trkpt>
      <trkpt lat="48.68244" lon="2.06853">
        <ele>102.38</ele>
        <time>2012-11-25T14:53:59.094Z</time>
      </trkpt>
      <trkpt lat="48.68234" lon="2.06855">
        <ele>102.45</ele>
        <time>2012-11-25T14:54:08.294Z</time>
      </trkpt>
      <trkpt lat="48.68224" lon="2.06863">
        <ele>102.146</ele>
        <time>2012-11-25T14:54:18.254Z</time>
      </trkpt>
      <trkpt lat="48.68215" lon="2.06863">
        <ele>101.645</ele>
        <time>2012-11-25T14:54:26.163Z</time>
      </trkpt>
      <trkpt lat="48.68205" lon="2.06873">
        <ele>101.838</ele>
        <time>2012-11-25T14:54:34.487Z</time>
      </trkpt>
      <trkpt lat="48.68197" lon="2.06881">
        <ele>102.736</ele>
        <time>2012-11-25T14:54:42.147Z</time>
      </trkpt>
      <trkpt lat="48.68188" lon="2.06886">
        <ele>103.353</ele>
        <time>2012-11-25T14:54:49.238Z</time>
      </trkpt>
      <trkpt lat="48.68179" lon="2.06886">
        <ele>103.237</ele>
        <time>2012-11-25T14:54:57.392Z</time>
      </trkpt>
      <trkpt lat="48.68169" lon="2.06892">
        <ele>102.642</ele>
        <time>2012-11-25T14:55:07.584Z</time>
      </trkpt>
      <trkpt lat="48.68163" lon="2.06902">
        <ele>102.176</ele>
        <time>2012-11-25T14:55:16.914Z</time>
      </trkpt>
      <trkpt lat="48.68156" lon="2.06912">
        <ele>102.265</ele>
        <time>2012-11-25T14:55:28.220Z</time>
      </trkpt>
      <trkpt lat="48.68149" lon="2.06922">
        <ele>102.572</ele>
        <time>2012-11-25T14:55:41.573Z</time>
      </trkpt>
      <trkpt lat="48.68142" lon="2.06932">
        <ele>102.724</ele>
        <time>2012-11-25T14:55:49.490Z</time>
      </trkpt>
      <trkpt lat="48.68134" lon="2.0694">
        <ele>102.811</ele>
        <time>2012-11-25T14:55:56.679Z</time>
      </trkpt>
      <trkpt lat="48.68134" lon="2.0694">
        <ele>102.943</ele>
        <time>2012-11-25T14:56:03.686Z</time>
      </trkpt>
      <trkpt lat="48.68134" lon="2.0694">
        <ele>103.077</ele>
        <time>2012-11-25T14:56:03.786Z</time>
      </trkpt>
      <trkpt lat="48.68129" lon="2.06954">
        <ele>103</ele>
        <time>2012-11-25T14:56:16.442Z</time>
      </trkpt>
      <trkpt lat="48.6812" lon="2.06961">
        <ele>102.878</ele>
        <time>2012-11-25T14:56:23.795Z</time>
      </trkpt>
      <trkpt lat="48.6811" lon="2.06968">
        <ele>102.815</ele>
        <time>2012-11-25T14:56:31.476Z</time>
      </trkpt>
      <trkpt lat="48.68106" lon="2.06981">
        <ele>102.802</ele>
        <time>2012-11-25T14:56:37.675Z</time>
      </trkpt>
      <trkpt lat="48.68106" lon="2.06981">
        <ele>102.81</ele>
        <time>2012-11-25T14:56:48.673Z</time>
      </trkpt>
      <trkpt lat="48.68106" lon="2.06981">
        <ele>102.801</ele>
        <time>2012-11-25T14:56:48.773Z</time>
      </trkpt>
      <trkpt lat="48.68092" lon="2.06982">
        <ele>102.759</ele>
        <time>2012-11-25T14:57:06.116Z</time>
      </trkpt>
      <trkpt lat="48.68082" lon="2.06983">
        <ele>103.23</ele>
        <time>2012-11-25T14:57:13.134Z</time>
      </trkpt>
      <trkpt lat="48.68073" lon="2.06985">
        <ele>104.596</ele>
        <time>2012-11-25T14:57:19.657Z</time>
      </trkpt>
      <trkpt lat="48.68063" lon="2.06987">
        <ele>106.083</ele>
        <time>2012-11-25T14:57:27.131Z</time>
      </trkpt>
      <trkpt lat="48.68053" lon="2.06991">
        <ele>106.851</ele>
        <time>2012-11-25T14:57:34.947Z</time>
      </trkpt>
      <trkpt lat="48.68043" lon="2.06991">
        <ele>107.005</ele>
        <time>2012-11-25T14:57:42.256Z</time>
      </trkpt>
      <trkpt lat="48.68032" lon="2.06992">
        <ele>106.902</ele>
        <time>2012-11-25T14:57:50.049Z</time>
      </trkpt>
      <trkpt lat="48.68022" lon="2.06991">
        <ele>106.277</ele>
        <time>2012-11-25T14:57:58.752Z</time>
      </trkpt>
      <trkpt lat="48.68013" lon="2.06992">
        <ele>104.657</ele>
        <time>2012-11-25T14:58:07.169Z</time>
      </trkpt>
      <trkpt lat="48.68004" lon="2.06994">
        <ele>102.454</ele>
        <time>2012-11-25T14:58:15.132Z</time>
      </trkpt>
      <trkpt lat="48.67994" lon="2.06994">
        <ele>100.636</ele>
        <time>2012-11-25T14:58:23.015Z</time>
      </trkpt>
      <trkpt lat="48.67985" lon="2.06999">
        <ele>99.695</ele>
        <time>2012-11-25T14:58:30.592Z</time>
      </trkpt>
      <trkpt lat="48.67973" lon="2.06999">
        <ele>99.492</ele>
        <time>2012-11-25T14:58:39.437Z</time>
      </trkpt>
      <trkpt lat="48.67965" lon="2.06995">
        <ele>99.583</ele>
        <time>2012-11-25T14:58:46.760Z</time>
      </trkpt>
      <trkpt lat="48.67955" lon="2.06993">
        <ele>100.397</ele>
        <time>2012-11-25T14:58:54.353Z</time>
      </trkpt>
      <trkpt lat="48.67946" lon="2.06998">
        <ele>102.426</ele>
        <time>2012-11-25T14:59:01.457Z</time>
      </trkpt>
      <trkpt lat="48.67936" lon="2.07001">
        <ele>104.983</ele>
        <time>2012-11-25T14:59:08.834Z</time>
      </trkpt>
      <trkpt lat="48.67927" lon="2.07002">
        <ele>106.824</ele>
        <time>2012-11-25T14:59:16.299Z</time>
      </trkpt>
      <trkpt lat="48.67918" lon="2.07003">
        <ele>107.609</ele>
        <time>2012-11-25T14:59:24.982Z</time>
      </trkpt>
      <trkpt lat="48.67909" lon="2.06996">
        <ele>107.838</ele>
        <time>2012-11-25T14:59:33.688Z</time>
      </trkpt>
      <trkpt lat="48.67899" lon="2.06998">
        <ele>108.49</ele>
        <time>2012-11-25T14:59:42.382Z</time>
      </trkpt>
      <trkpt lat="48.67889" lon="2.06997">
        <ele>109.159</ele>
        <time>2012-11-25T14:59:50.927Z</time>
      </trkpt>
      <trkpt lat="48.67881" lon="2.06989">
        <ele>108.908</ele>
        <time>2012-11-25T14:59:58.362Z</time>
      </trkpt>
      <trkpt lat="48.67873" lon="2.06984">
        <ele>108.016</ele>
        <time>2012-11-25T15:00:05.376Z</time>
      </trkpt>
      <trkpt lat="48.67864" lon="2.06978">
        <ele>107.449</ele>
        <time>2012-11-25T15:00:12.604Z</time>
      </trkpt>
      <trkpt lat="48.67856" lon="2.06969">
        <ele>106.961</ele>
        <time>2012-11-25T15:00:20.569Z</time>
      </trkpt>
      <trkpt lat="48.67847" lon="2.06964">
        <ele>106.039</ele>
        <time>2012-11-25T15:00:29.062Z</time>
      </trkpt>
      <trkpt lat="48.67837" lon="2.06957">
        <ele>104.794</ele>
        <time>2012-11-25T15:00:38.973Z</time>
      </trkpt>
      <trkpt lat="48.67827" lon="2.06957">
        <ele>103.655</ele>
        <time>2012-11-25T15:00:45.977Z</time>
      </trkpt>
      <trkpt lat="48.67819" lon="2.06951">
        <ele>102.574</ele>
        <time>2012-11-25T15:00:51.978Z</time>
      </trkpt>
      <trkpt lat="48.67809" lon="2.0695">
        <ele>101.653</ele>
        <time>2012-11-25T15:00:58.202Z</time>
      </trkpt>
      <trkpt lat="48.67799" lon="2.06949">
        <ele>101.101</ele>
        <time>2012-11-25T15:01:04.534Z</time>
      </trkpt>
      <trkpt lat="48.6779" lon="2.06944">
        <ele>101.116</ele>
        <time>2012-11-25T15:01:11.416Z</time>
      </trkpt>
      <trkpt lat="48.67782" lon="2.06939">
        <ele>103.087</ele>
        <time>2012-11-25T15:01:18.764Z</time>
      </trkpt>
      <trkpt lat="48.67772" lon="2.06933">
        <ele>107.632</ele>
        <time>2012-11-25T15:01:27.625Z</time>
      </trkpt>
      <trkpt lat="48.67763" lon="2.06925">
        <ele>112.259</ele>
        <time>2012-11-25T15:01:37.144Z</time>
      </trkpt>
      <trkpt lat="48.67752" lon="2.06918">
        <ele>115.184</ele>
        <time>2012-11-25T15:01:46.663Z</time>
      </trkpt>
      <trkpt lat="48.67745" lon="2.06908">
        <ele>118.565</ele>
        <time>2012-11-25T15:01:52.729Z</time>
      </trkpt>
      <trkpt lat="48.67737" lon="2.06899">
        <ele>124.041</ele>
        <time>2012-11-25T15:01:59.486Z</time>
      </trkpt>
      <trkpt lat="48.67728" lon="2.06893">
        <ele>129.63</ele>
        <time>2012-11-25T15:02:07.675Z</time>
      </trkpt>
      <trkpt lat="48.67728" lon="2.06893">
        <ele>132.806</ele>
        <time>2012-11-25T15:02:20.675Z</time>
      </trkpt>
      <trkpt lat="48.67728" lon="2.06893">
        <ele>133.609</ele>
        <time>2012-11-25T15:02:20.775Z</time>
      </trkpt>
      <trkpt lat="48.67716" lon="2.06879">
        <ele>133.321</ele>
        <time>2012-11-25T15:02:47.259Z</time>
      </trkpt>
      <trkpt lat="48.67707" lon="2.06875">
        <ele>132.876</ele>
        <time>2012-11-25T15:02:56.100Z</time>
      </trkpt>
      <trkpt lat="48.67698" lon="2.06868">
        <ele>132.61</ele>
        <time>2012-11-25T15:03:04.519Z</time>
      </trkpt>
      <trkpt lat="48.67688" lon="2.06863">
        <ele>132.537</ele>
        <time>2012-11-25T15:03:13.103Z</time>
      </trkpt>
      <trkpt lat="48.6768" lon="2.06857">
        <ele>132.754</ele>
        <time>2012-11-25T15:03:22.660Z</time>
      </trkpt>
      <trkpt lat="48.67672" lon="2.06849">
        <ele>133.286</ele>
        <time>2012-11-25T15:03:33.800Z</time>
      </trkpt>
      <trkpt lat="48.67662" lon="2.06836">
        <ele>133.808</ele>
        <time>2012-11-25T15:03:45.796Z</time>
      </trkpt>
      <trkpt lat="48.67653" lon="2.06831">
        <ele>133.763</ele>
        <time>2012-11-25T15:03:52.291Z</time>
      </trkpt>
      <trkpt lat="48.67646" lon="2.06818">
        <ele>133.336</ele>
        <time>2012-11-25T15:03:59.646Z</time>
      </trkpt>
      <trkpt lat="48.67638" lon="2.06809">
        <ele>133.272</ele>
        <time>2012-11-25T15:04:06.399Z</time>
      </trkpt>
      <trkpt lat="48.67629" lon="2.06801">
        <ele>133.686</ele>
        <time>2012-11-25T15:04:13.687Z</time>
      </trkpt>
      <trkpt lat="48.67621" lon="2.06793">
        <ele>134.118</ele>
        <time>2012-11-25T15:04:20.340Z</time>
      </trkpt>
      <trkpt lat="48.67616" lon="2.06782">
        <ele>134.613</ele>
        <time>2012-11-25T15:04:27.298Z</time>
      </trkpt>
      <trkpt lat="48.67611" lon="2.06769">
        <ele>135.41</ele>
        <time>2012-11-25T15:04:34.441Z</time>
      </trkpt>
      <trkpt lat="48.67607" lon="2.06756">
        <ele>136.443</ele>
        <time>2012-11-25T15:04:42.060Z</time>
      </trkpt>
      <trkpt lat="48.67604" lon="2.06741">
        <ele>137.218</ele>
        <time>2012-11-25T15:04:50.234Z</time>
      </trkpt>
      <trkpt lat="48.67604" lon="2.06726">
        <ele>137.396</ele>
        <time>2012-11-25T15:04:57.587Z</time>
      </trkpt>
      <trkpt lat="48.67597" lon="2.06716">
        <ele>137.729</ele>
        <time>2012-11-25T15:05:04.730Z</time>
      </trkpt>
      <trkpt lat="48.67592" lon="2.06705">
        <ele>139.096</ele>
        <time>2012-11-25T15:05:12.211Z</time>
      </trkpt>
      <trkpt lat="48.67585" lon="2.06689">
        <ele>140.854</ele>
        <time>2012-11-25T15:05:25.218Z</time>
      </trkpt>
      <trkpt lat="48.67578" lon="2.06678">
        <ele>141.786</ele>
        <time>2012-11-25T15:05:36.033Z</time>
      </trkpt>
      <trkpt lat="48.67567" lon="2.06671">
        <ele>141.553</ele>
        <time>2012-11-25T15:05:46.651Z</time>
      </trkpt>
      <trkpt lat="48.6756" lon="2.06662">
        <ele>140.67</ele>
        <time>2012-11-25T15:05:53.807Z</time>
      </trkpt>
      <trkpt lat="48.67552" lon="2.06653">
        <ele>139.682</ele>
        <time>2012-11-25T15:06:01.633Z</time>
      </trkpt>
      <trkpt lat="48.67543" lon="2.06644">
        <ele>137.825</ele>
        <time>2012-11-25T15:06:10.212Z</time>
      </trkpt>
      <trkpt lat="48.67538" lon="2.06632">
        <ele>134.625</ele>
        <time>2012-11-25T15:06:17.674Z</time>
      </trkpt>
      <trkpt lat="48.67531" lon="2.06621">
        <ele>131.205</ele>
        <time>2012-11-25T15:06:24.912Z</time>
      </trkpt>
      <trkpt lat="48.67524" lon="2.06613">
        <ele>128.326</ele>
        <time>2012-11-25T15:06:32.763Z</time>
      </trkpt>
      <trkpt lat="48.67514" lon="2.06615">
        <ele>125.812</ele>
        <time>2012-11-25T15:06:41.457Z</time>
      </trkpt>
      <trkpt lat="48.67506" lon="2.06609">
        <ele>124.166</ele>
        <time>2012-11-25T15:06:48.539Z</time>
      </trkpt>
      <trkpt lat="48.67499" lon="2.06598">
        <ele>123.84</ele>
        <time>2012-11-25T15:06:55.804Z</time>
      </trkpt>
      <trkpt lat="48.67493" lon="2.06588">
        <ele>124.674</ele>
        <time>2012-11-25T15:07:02.351Z</time>
      </trkpt>
      <trkpt lat="48.67485" lon="2.06578">
        <ele>126.448</ele>
        <time>2012-11-25T15:07:09.770Z</time>
      </trkpt>
      <trkpt lat="48.67476" lon="2.06572">
        <ele>129.677</ele>
        <time>2012-11-25T15:07:17.268Z</time>
      </trkpt>
      <trkpt lat="48.67468" lon="2.06562">
        <ele>134.052</ele>
        <time>2012-11-25T15:07:24.355Z</time>
      </trkpt>
      <trkpt lat="48.6746" lon="2.06555">
        <ele>137.94</ele>
        <time>2012-11-25T15:07:31.994Z</time>
      </trkpt>
      <trkpt lat="48.67451" lon="2.06551">
        <ele>140.236</ele>
        <time>2012-11-25T15:07:40.404Z</time>
      </trkpt>
      <trkpt lat="48.67442" lon="2.06546">
        <ele>141.575</ele>
        <time>2012-11-25T15:07:50.048Z</time>
      </trkpt>
      <trkpt lat="48.67434" lon="2.06541">
        <ele>142.891</ele>
        <time>2012-11-25T15:08:00.322Z</time>
      </trkpt>
      <trkpt lat="48.67425" lon="2.06535">
        <ele>144.269</ele>
        <time>2012-11-25T15:08:08.918Z</time>
      </trkpt>
      <trkpt lat="48.67419" lon="2.06525">
        <ele>144.93</ele>
        <time>2012-11-25T15:08:16.042Z</time>
      </trkpt>
      <trkpt lat="48.67411" lon="2.06517">
        <ele>144.684</ele>
        <time>2012-11-25T15:08:23.348Z</time>
      </trkpt>
      <trkpt lat="48.67402" lon="2.0651">
        <ele>144.109</ele>
        <time>2012-11-25T15:08:30.604Z</time>
      </trkpt>
      <trkpt lat="48.67394" lon="2.06505">
        <ele>143.727</ele>
        <time>2012-11-25T15:08:37.203Z</time>
      </trkpt>
      <trkpt lat="48.67386" lon="2.06498">
        <ele>143.591</ele>
        <time>2012-11-25T15:08:44.546Z</time>
      </trkpt>
      <trkpt lat="48.67378" lon="2.06489">
        <ele>143.598</ele>
        <time>2012-11-25T15:08:53.429Z</time>
      </trkpt>
      <trkpt lat="48.67368" lon="2.06485">
        <ele>144.337</ele>
        <time>2012-11-25T15:09:03.251Z</time>
      </trkpt>
      <trkpt lat="48.6736" lon="2.06478">
        <ele>146.506</ele>
        <time>2012-11-25T15:09:12.670Z</time>
      </trkpt>
      <trkpt lat="48.67351" lon="2.06474">
        <ele>149.226</ele>
        <time>2012-11-25T15:09:21.542Z</time>
      </trkpt>
      <trkpt lat="48.67341" lon="2.06471">
        <ele>151.059</ele>
        <time>2012-11-25T15:09:30.375Z</time>
      </trkpt>
      <trkpt lat="48.67333" lon="2.06465">
        <ele>151.812</ele>
        <time>2012-11-25T15:09:39.578Z</time>
      </trkpt>
      <trkpt lat="48.67325" lon="2.06458">
        <ele>152.081</ele>
        <time>2012-11-25T15:09:50.081Z</time>
      </trkpt>
      <trkpt lat="48.67316" lon="2.0645">
        <ele>152.335</ele>
        <time>2012-11-25T15:09:58.782Z</time>
      </trkpt>
      <trkpt lat="48.67308" lon="2.06441">
        <ele>152.45</ele>
        <time>2012-11-25T15:10:07.060Z</time>
      </trkpt>
      <trkpt lat="48.67298" lon="2.06435">
        <ele>152.341</ele>
        <time>2012-11-25T15:10:16.145Z</time>
      </trkpt>
      <trkpt lat="48.67289" lon="2.06436">
        <ele>152.12</ele>
        <time>2012-11-25T15:10:26.367Z</time>
      </trkpt>
      <trkpt lat="48.67279" lon="2.0644">
        <ele>151.703</ele>
        <time>2012-11-25T15:10:35.575Z</time>
      </trkpt>
      <trkpt lat="48.67268" lon="2.06441">
        <ele>151.222</ele>
        <time>2012-11-25T15:10:45.161Z</time>
      </trkpt>
      <trkpt lat="48.67259" lon="2.06437">
        <ele>150.57</ele>
        <time>2012-11-25T15:10:54.643Z</time>
      </trkpt>
      <trkpt lat="48.6725" lon="2.06436">
        <ele>149.458</ele>
        <time>2012-11-25T15:11:02.678Z</time>
      </trkpt>
      <trkpt lat="48.6725" lon="2.06436">
        <ele>148.567</ele>
        <time>2012-11-25T15:11:17.678Z</time>
      </trkpt>
      <trkpt lat="48.6725" lon="2.06436">
        <ele>148.404</ele>
        <time>2012-11-25T15:11:23.616Z</time>
      </trkpt>
      <trkpt lat="48.67241" lon="2.0644">
        <ele>148.43</ele>
        <time>2012-11-25T15:13:39.952Z</time>
      </trkpt>
      <trkpt lat="48.67231" lon="2.06435">
        <ele>148.104</ele>
        <time>2012-11-25T15:13:48.654Z</time>
      </trkpt>
      <trkpt lat="48.67221" lon="2.06436">
        <ele>147.649</ele>
        <time>2012-11-25T15:13:56.655Z</time>
      </trkpt>
      <trkpt lat="48.67212" lon="2.06433">
        <ele>147.602</ele>
        <time>2012-11-25T15:14:05.295Z</time>
      </trkpt>
      <trkpt lat="48.67203" lon="2.06429">
        <ele>148.089</ele>
        <time>2012-11-25T15:14:14.677Z</time>
      </trkpt>
      <trkpt lat="48.67194" lon="2.06425">
        <ele>149.094</ele>
        <time>2012-11-25T15:14:23.180Z</time>
      </trkpt>
      <trkpt lat="48.67184" lon="2.06422">
        <ele>150.652</ele>
        <time>2012-11-25T15:14:30.226Z</time>
      </trkpt>
      <trkpt lat="48.67175" lon="2.06421">
        <ele>152.199</ele>
        <time>2012-11-25T15:14:37.345Z</time>
      </trkpt>
      <trkpt lat="48.67167" lon="2.06428">
        <ele>153.086</ele>
        <time>2012-11-25T15:14:46.282Z</time>
      </trkpt>
      <trkpt lat="48.67159" lon="2.06438">
        <ele>153.815</ele>
        <time>2012-11-25T15:14:56.619Z</time>
      </trkpt>
      <trkpt lat="48.67157" lon="2.06452">
        <ele>155.122</ele>
        <time>2012-11-25T15:15:05.354Z</time>
      </trkpt>
      <trkpt lat="48.67152" lon="2.06465">
        <ele>156.546</ele>
        <time>2012-11-25T15:15:14.904Z</time>
      </trkpt>
      <trkpt lat="48.67145" lon="2.06476">
        <ele>157.325</ele>
        <time>2012-11-25T15:15:24.759Z</time>
      </trkpt>
      <trkpt lat="48.67138" lon="2.06487">
        <ele>157.505</ele>
        <time>2012-11-25T15:15:33.941Z</time>
      </trkpt>
      <trkpt lat="48.67132" lon="2.06498">
        <ele>157.418</ele>
        <time>2012-11-25T15:15:42.809Z</time>
      </trkpt>
      <trkpt lat="48.67127" lon="2.06511">
        <ele>157.301</ele>
        <time>2012-11-25T15:15:51.935Z</time>
      </trkpt>
      <trkpt lat="48.67131" lon="2.06525">
        <ele>156.854</ele>
        <time>2012-11-25T15:16:01.251Z</time>
      </trkpt>
      <trkpt lat="48.67137" lon="2.06536">
        <ele>155.503</ele>
        <time>2012-11-25T15:16:09.834Z</time>
      </trkpt>
      <trkpt lat="48.67144" lon="2.06547">
        <ele>153.432</ele>
        <time>2012-11-25T15:16:18.124Z</time>
      </trkpt>
      <trkpt lat="48.67148" lon="2.0656">
        <ele>151.532</ele>
        <time>2012-11-25T15:16:26.700Z</time>
      </trkpt>
      <trkpt lat="48.67155" lon="2.0657">
        <ele>150.391</ele>
        <time>2012-11-25T15:16:35.828Z</time>
      </trkpt>
      <trkpt lat="48.67163" lon="2.06581">
        <ele>150.013</ele>
        <time>2012-11-25T15:16:45.363Z</time>
      </trkpt>
      <trkpt lat="48.67171" lon="2.06588">
        <ele>150.072</ele>
        <time>2012-11-25T15:16:54.547Z</time>
      </trkpt>
      <trkpt lat="48.6718" lon="2.06593">
        <ele>150.232</ele>
        <time>2012-11-25T15:17:03.060Z</time>
      </trkpt>
      <trkpt lat="48.67188" lon="2.06601">
        <ele>150.486</ele>
        <time>2012-11-25T15:17:11.605Z</time>
      </trkpt>
      <trkpt lat="48.67195" lon="2.06612">
        <ele>151.268</ele>
        <time>2012-11-25T15:17:20.415Z</time>
      </trkpt>
      <trkpt lat="48.672" lon="2.06624">
        <ele>152.602</ele>
        <time>2012-11-25T15:17:27.139Z</time>
      </trkpt>
      <trkpt lat="48.67206" lon="2.06634">
        <ele>154.274</ele>
        <time>2012-11-25T15:17:33.827Z</time>
      </trkpt>
      <trkpt lat="48.67213" lon="2.06644">
        <ele>156.138</ele>
        <time>2012-11-25T15:17:41.722Z</time>
      </trkpt>
      <trkpt lat="48.67217" lon="2.06658">
        <ele>157.637</ele>
        <time>2012-11-25T15:17:49.803Z</time>
      </trkpt>
      <trkpt lat="48.67218" lon="2.06674">
        <ele>158.577</ele>
        <time>2012-11-25T15:17:58.256Z</time>
      </trkpt>
      <trkpt lat="48.6722" lon="2.06688">
        <ele>159.392</ele>
        <time>2012-11-25T15:18:05.847Z</time>
      </trkpt>
      <trkpt lat="48.67225" lon="2.06699">
        <ele>160.004</ele>
        <time>2012-11-25T15:18:14.542Z</time>
      </trkpt>
      <trkpt lat="48.67227" lon="2.06714">
        <ele>160.531</ele>
        <time>2012-11-25T15:18:24.003Z</time>
      </trkpt>
      <trkpt lat="48.67229" lon="2.06729">
        <ele>161.307</ele>
        <time>2012-11-25T15:18:32.069Z</time>
      </trkpt>
      <trkpt lat="48.67229" lon="2.06743">
        <ele>162.038</ele>
        <time>2012-11-25T15:18:40.073Z</time>
      </trkpt>
      <trkpt lat="48.67238" lon="2.06747">
        <ele>162.402</ele>
        <time>2012-11-25T15:18:50.525Z</time>
      </trkpt>
      <trkpt lat="48.67245" lon="2.06759">
        <ele>162.529</ele>
        <time>2012-11-25T15:19:01.553Z</time>
      </trkpt>
      <trkpt lat="48.67248" lon="2.06772">
        <ele>162.607</ele>
        <time>2012-11-25T15:19:08.586Z</time>
      </trkpt>
      <trkpt lat="48.67254" lon="2.06782">
        <ele>162.873</ele>
        <time>2012-11-25T15:19:16.073Z</time>
      </trkpt>
      <trkpt lat="48.67261" lon="2.06793">
        <ele>163.179</ele>
        <time>2012-11-25T15:19:23.423Z</time>
      </trkpt>
      <trkpt lat="48.67268" lon="2.06803">
        <ele>163.111</ele>
        <time>2012-11-25T15:19:30.417Z</time>
      </trkpt>
      <trkpt lat="48.67275" lon="2.06813">
        <ele>162.772</ele>
        <time>2012-11-25T15:19:37.435Z</time>
      </trkpt>
      <trkpt lat="48.6728" lon="2.06826">
        <ele>162.609</ele>
        <time>2012-11-25T15:19:45.422Z</time>
      </trkpt>
      <trkpt lat="48.67287" lon="2.06835">
        <ele>162.719</ele>
        <time>2012-11-25T15:19:52.961Z</time>
      </trkpt>
      <trkpt lat="48.67294" lon="2.06845">
        <ele>162.759</ele>
        <time>2012-11-25T15:20:00.530Z</time>
      </trkpt>
      <trkpt lat="48.673" lon="2.06858">
        <ele>162.383</ele>
        <time>2012-11-25T15:20:09.219Z</time>
      </trkpt>
      <trkpt lat="48.67308" lon="2.06865">
        <ele>161.76</ele>
        <time>2012-11-25T15:20:17.065Z</time>
      </trkpt>
      <trkpt lat="48.67317" lon="2.06871">
        <ele>161.267</ele>
        <time>2012-11-25T15:20:25.328Z</time>
      </trkpt>
      <trkpt lat="48.67322" lon="2.06885">
        <ele>161.005</ele>
        <time>2012-11-25T15:20:34.567Z</time>
      </trkpt>
      <trkpt lat="48.67327" lon="2.06898">
        <ele>160.877</ele>
        <time>2012-11-25T15:20:42.261Z</time>
      </trkpt>
      <trkpt lat="48.67333" lon="2.06908">
        <ele>160.816</ele>
        <time>2012-11-25T15:20:49.681Z</time>
      </trkpt>
      <trkpt lat="48.67341" lon="2.06915">
        <ele>160.877</ele>
        <time>2012-11-25T15:20:57.369Z</time>
      </trkpt>
      <trkpt lat="48.67344" lon="2.06928">
        <ele>160.999</ele>
        <time>2012-11-25T15:21:05.114Z</time>
      </trkpt>
      <trkpt lat="48.67347" lon="2.06941">
        <ele>161.014</ele>
        <time>2012-11-25T15:21:12.706Z</time>
      </trkpt>
      <trkpt lat="48.67349" lon="2.06954">
        <ele>161.003</ele>
        <time>2012-11-25T15:21:20.683Z</time>
      </trkpt>
      <trkpt lat="48.67349" lon="2.06954">
        <ele>161.142</ele>
        <time>2012-11-25T15:21:35.683Z</time>
      </trkpt>
      <trkpt lat="48.67349" lon="2.06954">
        <ele>161.332</ele>
        <time>2012-11-25T15:22:09.302Z</time>
      </trkpt>
    </trkseg>
  </trk>
</gpx>